logo
Games tagged Tactical RPG
# Game Release date
Price
Score rank
(Userscore / Metascore)
Owners
Players
Playtime (Median)
Developer(s)
Publisher(s)
1 Divinity: Original Sin 2 - Definitive Edition Sep 14, 2017 $44.99N/A (N/A/93%)5,000,000 .. 10,000,0001.06%14:24 (16:28)Larian StudiosLarian Studios
2 RimWorld Oct 17, 2018 $27.99N/A (N/A/87%)2,000,000 .. 5,000,00012.99%13:40 (09:04)Ludeon StudiosLudeon Studios
3 Wildermyth Jun 15, 2021 $24.99N/A (N/A/86%)500,000 .. 1,000,0002.63%00:30 (00:15)Worldwalker Games LLCWorldwalker Games LLC, WhisperGames
4 Planescape: Torment: Enhanced Edition Apr 11, 2017 $4.99N/A (N/A/85%)200,000 .. 500,0000%00:00 (00:00)BeamdogBeamdog
5 The Legend of Heroes: Trails in the Sky Jul 29, 2014 $19.99N/A (N/A/85%)200,000 .. 500,0000%00:00 (00:00)Nihon FalcomXSEED Games, Marvelous USA, Inc.
6 Fuga: Melodies of Steel Jul 28, 2021 $39.99N/A (N/A/84%)20,000 .. 50,0000%00:00 (00:00)CyberConnect2CyberConnect2
7 DEFCON Sep 29, 2006 $9.99N/A (N/A/84%)200,000 .. 500,0000%00:00 (00:00)Introversion SoftwareIntroversion Software
8 Darwinia Jul 14, 2005 $9.99N/A (N/A/84%)100,000 .. 200,0000%00:00 (00:00)Introversion SoftwareIntroversion Software
9 Valkyria Chronicles 4 Complete Edition Sep 25, 2018 $49.99N/A (N/A/83%)500,000 .. 1,000,0000%00:00 (00:00)SEGASEGA
10 Silent Storm Gold Edition Sep 9, 2004 $9.99N/A (N/A/83%)200,000 .. 500,0000%00:00 (00:00)NivalTHQ Nordic
11 Gloomhaven Oct 20, 2021 $34.99N/A (N/A/82%)500,000 .. 1,000,0000%00:00 (00:00)Flaming Fowl Studios, Saber InteractiveTwin Sails Interactive
12 Dragon Age II: Ultimate Edition Mar 8, 2011 $29.99N/A (N/A/82%)200,000 .. 500,0000%00:00 (00:00)BioWareElectronic Arts
13 Fell Seal: Arbiter's Mark Apr 30, 2019 $29.99N/A (N/A/82%)200,000 .. 500,0000%00:00 (00:00)6 Eyes StudioFulqrum Publishing
14 Wargroove Feb 1, 2019 $7.99N/A (N/A/82%)500,000 .. 1,000,0000%00:00 (00:00)ChucklefishChucklefish
15 The Banner Saga 3 Jul 26, 2018 $24.99N/A (N/A/82%)100,000 .. 200,0000%00:00 (00:00)StoicStoic Studio
16 The Banner Saga 2 Apr 19, 2016 $24.99N/A (N/A/82%)200,000 .. 500,0000%00:00 (00:00)StoicStoic Studio
17 Invisible, Inc. May 12, 2015 $19.99N/A (N/A/82%)1,000,000 .. 2,000,0000%00:00 (00:00)Klei EntertainmentKlei Entertainment
18 King's Bounty: Armored Princess Nov 19, 2009 $9.99N/A (N/A/82%)200,000 .. 500,0000%00:00 (00:00)Katauri InteractiveFulqrum Publishing
19 Fallout Tactics: Brotherhood of Steel Aug 19, 2009 $9.99N/A (N/A/82%)1,000,000 .. 2,000,0000.86%00:01 (00:00)14° EastBethesda Softworks
20 Warhammer 40,000: Chaos Gate - Daemonhunters May 5, 2022 $44.99N/A (N/A/81%)500,000 .. 1,000,0003.03%00:09 (00:04)Complex GamesFrontier Foundry
21 Trials of Fire Apr 9, 2021 $19.99N/A (N/A/81%)200,000 .. 500,0000%00:00 (00:00)Whatboy GamesWhatboy Games
22 Disgaea 2 PC Jan 30, 2017 $19.99N/A (N/A/81%)100,000 .. 200,0000%00:00 (00:00)Nippon Ichi Software, Inc.NIS America, Inc.
23 The Age of Decadence Oct 14, 2015 $14.99N/A (N/A/81%)200,000 .. 500,0000%00:00 (00:00)Iron Tower StudioIron Tower Studio
24 Expeditions: Rome Jan 20, 2022 $44.99N/A (N/A/80%)200,000 .. 500,0000%00:00 (00:00)Logic ArtistsTHQ Nordic
25 Dark Deity Jun 15, 2021 $6.24N/A (N/A/80%)100,000 .. 200,0000%00:00 (00:00)Sword & Axe LLCFreedom Games
26 Wintermoor Tactics Club May 5, 2020 $14.99N/A (N/A/80%)20,000 .. 50,0000%00:00 (00:00)EVC GamesVersus Evil
27 Gears Tactics Apr 28, 2020 $13.59N/A (N/A/80%)200,000 .. 500,0000%00:00 (00:00)Splash Damage, The CoalitionXbox Game Studios
28 Battle Brothers Mar 24, 2017 $29.99N/A (N/A/80%)500,000 .. 1,000,00017.65%00:10 (00:14)Overhype StudiosOverhype Studios
29 Card Hunter Jul 13, 2015 FreeN/A (N/A/80%)1,000,000 .. 2,000,0000%00:00 (00:00)The Knights of UnityThe Knights of Unity
30 The Banner Saga Jan 14, 2014 $7.99N/A (N/A/80%)500,000 .. 1,000,0000%00:00 (00:00)StoicStoic Studio
31 Fallen Enchantress: Legendary Heroes May 22, 2013 $24.99N/A (N/A/80%)200,000 .. 500,0000%00:00 (00:00)Stardock EntertainmentStardock Entertainment
32 Super Robot Wars 30 Oct 27, 2021 $59.99N/A (N/A/79%)200,000 .. 500,0000%00:00 (00:00)B.B.STUDIO CO.,LTD.Bandai Namco Entertainment
33 Midnight Protocol Oct 13, 2021 $14.99N/A (N/A/79%)20,000 .. 50,0000%00:00 (00:00)LuGus StudiosIceberg Interactive
34 King's Bounty: The Legend Sep 23, 2008 $6.99N/A (N/A/79%)200,000 .. 500,0000%00:00 (00:00)Fulqrum PublishingFulqrum Publishing
35 King's Bounty: Crossworlds Sep 17, 2010 $14.99N/A (N/A/78%)200,000 .. 500,0000%00:00 (00:00)Katauri InteractiveFulqrum Publishing
36 Star Renegades Sep 8, 2020 $24.99N/A (N/A/77%)200,000 .. 500,0000%00:00 (00:00)Massive Damage, Inc.Raw Fury
37 Weird West: Definitive Edition Mar 31, 2022 $39.99N/A (N/A/76%)200,000 .. 500,0000%00:00 (00:00)WolfEye StudiosDevolver Digital
38 Stirring Abyss Oct 29, 2020 FreeN/A (N/A/76%)20,000 .. 50,0000%00:00 (00:00)Sleepy Sentry, K-ProjectSlitherine Ltd.
39 Broken Lines Feb 25, 2020 $3.74N/A (N/A/76%)50,000 .. 100,0000%00:00 (00:00)BirdIsland/PortaPlaySuperGG.com
40 WAKFU Sep 18, 2014 FreeN/A (N/A/76%)1,000,000 .. 2,000,0000%00:00 (00:00)Ankama StudioAnkama Games
41 Multiwinia Sep 19, 2008 $9.99N/A (N/A/76%)50,000 .. 100,0000%00:00 (00:00)Introversion SoftwareIntroversion Software
42 Vaporum Sep 28, 2017 $2.99N/A (N/A/75%)50,000 .. 100,0000%00:00 (00:00)Fatbot Games, s. r. o.Fatbot Games, s. r. o.
43 Armello Sep 1, 2015 $24.99N/A (N/A/75%)1,000,000 .. 2,000,0000%00:00 (00:00)League of GeeksLeague of Geeks
44 Chroma Squad Apr 30, 2015 $14.99N/A (N/A/75%)200,000 .. 500,0000%00:00 (00:00)Behold StudiosBehold Studios
45 Phoenix Point Dec 3, 2020 $24.99N/A (N/A/74%)200,000 .. 500,0000%00:00 (00:00)Snapshot Games Inc.Snapshot Games Inc.
46 Fort Triumph Apr 16, 2020 $19.99N/A (N/A/74%)100,000 .. 200,0000%00:00 (00:00)CookieByte EntertainmentCookieByte Entertainment
47 Expeditions: Viking Apr 27, 2017 $29.99N/A (N/A/74%)200,000 .. 500,0000%00:00 (00:00)Logic ArtistsTHQ Nordic
48 Disgaea PC Feb 24, 2016 $19.99N/A (N/A/74%)500,000 .. 1,000,0000%00:00 (00:00)Nippon Ichi Software, Inc.NIS America, Inc.
49 Mordheim: City of the Damned Nov 19, 2015 $1.99N/A (N/A/74%)500,000 .. 1,000,0000%00:00 (00:00)Rogue FactorNacon
50 Blackguards 2 Jan 20, 2015 $0.99N/A (N/A/74%)100,000 .. 200,0000%00:00 (00:00)Daedalic EntertainmentDaedalic Entertainment
51 Eador. Masters of the Broken World Apr 19, 2013 $19.99N/A (N/A/74%)1,000,000 .. 2,000,0000%00:00 (00:00)Snowbird GamesSnowbird Games
52 King's Bounty: Warriors of the North Oct 25, 2012 $1.99N/A (N/A/74%)200,000 .. 500,0000%00:00 (00:00)Fulqrum PublishingFulqrum Publishing
53 Popup Dungeon Aug 12, 2020 $24.99N/A (N/A/73%)50,000 .. 100,0000%00:00 (00:00)Triple.B.TitlesHumble Games
54 Nowhere Prophet Jul 19, 2019 $24.99N/A (N/A/73%)50,000 .. 100,0000%00:00 (00:00)Sharkbomb StudiosNo More Robots
55 Halcyon 6: Starbase Commander (LIGHTSPEED EDITION) Aug 10, 2017 $14.99N/A (N/A/73%)20,000 .. 50,0000%00:00 (00:00)Massive Damage, Inc.Massive Damage, Inc.
56 Children of Zodiarcs Jul 18, 2017 $17.99N/A (N/A/73%)20,000 .. 50,0000%00:00 (00:00)Cardboard UtopiaSquare Enix
57 Starpoint Gemini Warlords May 23, 2017 $34.99N/A (N/A/73%)50,000 .. 100,0000%00:00 (00:00)Little Green Men GamesLittle Green Men Games
58 Regalia: Of Men and Monarchs May 18, 2017 $19.99N/A (N/A/73%)0 .. 20,0000%00:00 (00:00)Pixelated MilkPixelated Milk
59 MASSIVE CHALICE Jun 1, 2015 $19.99N/A (N/A/73%)50,000 .. 100,0000%00:00 (00:00)Double Fine ProductionsDouble Fine Productions
60 Earth 2160 Apr 1, 2006 $4.99N/A (N/A/73%)200,000 .. 500,0000%00:00 (00:00)Reality Pump StudiosTopware Interactive, ACE
61 All Walls Must Fall - A Tech-Noir Tactics Game Feb 23, 2018 $9.99N/A (N/A/72%)50,000 .. 100,0000%00:00 (00:00)inbetweengamesinbetweengames
62 Aarklash: Legacy Sep 12, 2013 $15.99N/A (N/A/72%)100,000 .. 200,0000%00:00 (00:00)Cyanide StudioNacon
63 Viola: The Heroine's Melody Feb 17, 2021 $14.99N/A (N/A/71%)0 .. 20,0000%00:00 (00:00)Jelle van DoorneJelle van Doorne
64 SD GUNDAM G GENERATION CROSS RAYS Nov 27, 2019 $39.99N/A (N/A/71%)500,000 .. 1,000,0009.09%03:38 (01:49)TOM CREATE, 株式会社トムクリエイトBANDAI NAMCO Entertainment, 株式会社バンダイナムコエンターテインメント
65 Halcyon 6: Starbase Commander Sep 8, 2016 $14.99N/A (N/A/71%)100,000 .. 200,0000%00:00 (00:00)Massive Damage, Inc.Massive Damage, Inc.
66 Legends of Eisenwald Jul 2, 2015 $9.99N/A (N/A/71%)100,000 .. 200,0000%00:00 (00:00)Aterdux EntertainmentAterdux Entertainment
67 TINY METAL: FULL METAL RUMBLE Jul 11, 2019 $14.99N/A (N/A/70%)0 .. 20,0000%00:00 (00:00)AREA 35, Inc.AREA 34, Inc.
68 Starpoint Gemini 2 Sep 26, 2014 $34.99N/A (N/A/70%)500,000 .. 1,000,0000%00:00 (00:00)Little Green Men GamesLittle Green Men Games
69 Vaporum: Lockdown Sep 15, 2020 $6.11N/A (N/A/68%)0 .. 20,0000%00:00 (00:00)Fatbot Games, s. r. o.Fatbot Games, s. r. o.
70 Pathway Apr 11, 2019 $15.99N/A (N/A/68%)200,000 .. 500,0000%00:00 (00:00)RobotalityChucklefish
71 WARTILE Feb 8, 2018 $19.99N/A (N/A/68%)50,000 .. 100,0000%00:00 (00:00)Playwood ProjectDeck13, WhisperGames
72 TINY METAL Dec 21, 2017 $24.99N/A (N/A/68%)0 .. 20,0000%00:00 (00:00)AREA 35, Inc.Sony Music Entertainment (Japan) Inc. / UNTIES
73 Blackguards Jan 22, 2014 $0.99N/A (N/A/68%)500,000 .. 1,000,0000%00:00 (00:00)Daedalic EntertainmentDaedalic Entertainment
74 Fallen Legion: Rise to Glory Jan 5, 2018 $29.99N/A (N/A/66%)0 .. 20,0000%00:00 (00:00)YummyYummyTummy, MintsphereYummyYummyTummy
75 Ash of Gods: Redemption Mar 23, 2018 $24.99N/A (N/A/65%)200,000 .. 500,0000%00:00 (00:00)AurumDustAurumDust, WhisperGames
76 Grotesque Tactics: Evil Heroes Oct 15, 2010 $9.99N/A (N/A/65%)100,000 .. 200,0000%00:00 (00:00)Silent DreamsHeadup Publishing
77 Masquerada: Songs and Shadows Sep 30, 2016 $19.99N/A (N/A/64%)200,000 .. 500,0000%00:00 (00:00)Witching Hour StudiosYsbryd Games
78 Has-Been Heroes Mar 28, 2017 $19.99N/A (N/A/63%)50,000 .. 100,00020%10:45 (05:22)FrozenbyteGameTrust Games
79 Jagged Alliance: Crossfire Aug 24, 2012 $14.99N/A (N/A/63%)100,000 .. 200,0000%00:00 (00:00)Coreplay GmbHTHQ Nordic
80 WARSAW Oct 2, 2019 FreeN/A (N/A/62%)20,000 .. 50,0000%00:00 (00:00)Pixelated Milk, RetrovibeInstytut Pamięci Narodowej
81 Jagged Alliance - Back in Action Feb 8, 2012 $19.99N/A (N/A/62%)200,000 .. 500,0000%00:00 (00:00)Coreplay GmbH, Bigmoon StudiosTHQ Nordic
82 Prince of Qin Oct 26, 2021 $1.99N/A (N/A/61%)0 .. 20,0000%00:00 (00:00)Object Software, ZOOM Platform Media, Jordan Freeman GroupStrategy First
83 The Dwarves Dec 1, 2016 $39.99N/A (N/A/61%)100,000 .. 200,0000%00:00 (00:00)KING ArtTHQ Nordic, EuroVideo Medien
84 Kingdom Under Fire: The Crusaders Feb 28, 2020 $19.99N/A (N/A/60%)20,000 .. 50,0000%00:00 (00:00)BluesideBlueside, Incredi Soft
85 Jagged Alliance: Rage! Dec 6, 2018 $3.99N/A (N/A/59%)100,000 .. 200,0000%00:00 (00:00)Cliffhanger ProductionsHandyGames
86 Prime World: Defenders Jun 5, 2013 $9.99N/A (N/A/58%)200,000 .. 500,0000%00:00 (00:00)NivalNival
87 Forged of Blood Aug 1, 2019 $14.99N/A (N/A/57%)0 .. 20,0000%00:00 (00:00)Critical ForgeCritical Forge
88 City of the Shroud Aug 9, 2018 N/AN/A (N/A/57%)0 .. 20,0000%00:00 (00:00)Abyssal Arts Ltd.Abyssal Arts Ltd.
89 Tears of Avia Oct 15, 2020 $14.99N/A (N/A/56%)50,000 .. 100,0000%00:00 (00:00)CooCooSqueaky GamesPQube
90 Grimshade Mar 26, 2019 $19.99N/A (N/A/53%)20,000 .. 50,0000%00:00 (00:00)TALEROCKAsterion Games
91 The Waylanders Feb 2, 2022 $34.99N/A (N/A/51%)20,000 .. 50,0000%00:00 (00:00)GATO STUDIOGATO STUDIO
92 Confrontation Apr 4, 2012 $9.99N/A (N/A/51%)100,000 .. 200,0000%00:00 (00:00)Cyanide StudioFocus Home Interactive
93 Line Of Defense Tactics - Tactical Advantage Mar 17, 2014 $9.99N/A (N/A/47%)0 .. 20,0000%00:00 (00:00)3000AD3000AD
94 Requiescat Oct 2021 N/AN/A (N/A)20,000 .. 50,0000%00:00 (00:00)GameBarley CO.,LTD.GameBarley CO.,LTD.
95 Paradigm Shift May 31, 2021 FreeN/A (N/A)20,000 .. 50,0000%00:00 (00:00)PixieBixxie, NUU-Pro, telosLunar Boon
96 After Off War May 21, 2021 N/AN/A (N/A)0 .. 20,0000%00:00 (00:00)DAY DAY UP GAMEDAY DAY UP GAME
97 Giants May 7, 2021 N/AN/A (N/A)100,000 .. 200,0000%00:00 (00:00)Singta inc.Singta Inc.
98 Dudes on a Map: Virtual Grid Paper Apr 20, 2021 FreeN/A (N/A)20,000 .. 50,0000%00:00 (00:00)Big Sky Software LLCBig Sky Software LLC
99 全战天下 Apr 12, 2021 FreeN/A (N/A)20,000 .. 50,0000%00:00 (00:00)全战天下全战天下
100 Magicians' Legacy: Prologue Apr 6, 2021 FreeN/A (N/A)50,000 .. 100,0000%00:00 (00:00)Greenolor StudioKaser Studio
101 Heart of Enya Mar 26, 2021 FreeN/A (N/A)20,000 .. 50,0000%00:00 (00:00)Team BapyTeam Bapy
102 Condors Vs Ocelots Mar 19, 2021 FreeN/A (N/A)0 .. 20,0000%00:00 (00:00)Titanomachy StudiosTitanomachy Studios
103 Realm Engine | Virtual Tabletop Mar 5, 2021 FreeN/A (N/A)20,000 .. 50,0000%00:00 (00:00)Blake JohnsonPixel Ghost
104 Quintaesencia Mar 5, 2021 FreeN/A (N/A)20,000 .. 50,0000%00:00 (00:00)AngelusAngelus
105 Wonhon: Prologue Feb 28, 2021 FreeN/A (N/A)200,000 .. 500,0000%00:00 (00:00)BUSAN SANAI GAMESSuperGG.com
106 Wartune Reborn Feb 26, 2021 FreeN/A (N/A)50,000 .. 100,0000%00:00 (00:00)7Road7Road
107 Sid Classic Feb 18, 2021 FreeN/A (N/A)20,000 .. 50,0000%00:00 (00:00)Singta inc.Singta inc.
108 修真之路 Feb 6, 2021 FreeN/A (N/A)0 .. 20,0000%00:00 (00:00)游韵游戏网络公司游韵游戏网络公司
109 Warriors: Rise to Glory! Online Multiplayer Open Beta Jan 28, 2021 N/AN/A (N/A)50,000 .. 100,0000%00:00 (00:00)Gavra GamesGavra Games
110 Space Cats Tactics: Prologue Jan 1, 2021 N/AN/A (N/A)50,000 .. 100,0000%00:00 (00:00)Mitzi GamesMitzi Games
111 Slaves of Magic prelude Dec 14, 2020 N/AN/A (N/A)50,000 .. 100,0000%00:00 (00:00)Amethyst DreamersAmethyst Dreamers
112 911 Emergency Manager Nov 20, 2020 N/AN/A (N/A)20,000 .. 50,0000%00:00 (00:00)GoodZeit UGGoodZeit UG
113 Aegis Online Oct 30, 2020 FreeN/A (N/A)0 .. 20,0000%00:00 (00:00)Kale the QuickEaster Egg Productions
114 The Last Spell: Prologue Oct 29, 2020 N/AN/A (N/A)100,000 .. 200,0000%00:00 (00:00)Ishtar GamesThe Arcade Crew, Gamera Game (China)
115 Gladiator Guild Manager: Prologue Aug 27, 2020 FreeN/A (N/A)200,000 .. 500,0000%00:00 (00:00)Entertainment ForgeGrabTheGames, Gamera Games, UpgradePoint
116 Dungeon & Derision Aug 6, 2020 FreeN/A (N/A)0 .. 20,0000%00:00 (00:00)Alexis AngelyAlexis Angely
117 8-Bit Attack Jul 15, 2020 FreeN/A (N/A)20,000 .. 50,0000%00:00 (00:00)Startale Games, Petersen GamesStartale Games
118 DF-41 Simulator Jul 7, 2020 FreeN/A (N/A)20,000 .. 50,0000%00:00 (00:00)Bo ChenBo Chen
119 The falling tower Jun 23, 2020 FreeN/A (N/A)0 .. 20,0000%00:00 (00:00)CarotaaDream Night Studio
120 Hopebringers May 25, 2020 FreeN/A (N/A)20,000 .. 50,0000%00:00 (00:00)Critical Miss GamesCritical Miss Games
121 Zoria: Age of Shattering Prologue Apr 30, 2020 FreeN/A (N/A)100,000 .. 200,0000%00:00 (00:00)Tiny Trinket GamesAnshar Publishing
122 INFILTRIA Mar 3, 2020 N/AN/A (N/A)0 .. 20,0000%00:00 (00:00)sectuZNETsectuZ.NET
123 Battlecraft - Tactics Online Feb 10, 2020 N/AN/A (N/A)0 .. 20,0000%00:00 (00:00)Sigil EntertainmentSigil Entertainment
124 ReversiQuest2 Jan 6, 2020 N/AN/A (N/A)0 .. 20,0000%00:00 (00:00)YokogosystemsYokogosystems
125 Mix-Sign: Girl with 3 Signs Jan 6, 2020 FreeN/A (N/A)20,000 .. 50,0000%00:00 (00:00)KellenKyoKellenKyo
126 Game of Thrones Winter is Coming Nov 14, 2019 FreeN/A (N/A)200,000 .. 500,0000%00:00 (00:00)YOUZU (SINGAPORE) PTE. LTD.YOUZU (SINGAPORE) PTE. LTD.
127 Dawn of the Dragons: Ascension Nov 1, 2019 FreeN/A (N/A)20,000 .. 50,0000%00:00 (00:00)5th Planet Games Development ApS5th Planet Games Development ApS
128 Braveland Heroes Sep 16, 2019 FreeN/A (N/A)200,000 .. 500,0000%00:00 (00:00)Tortuga TeamTortuga Team
129 《鬼畜战记:金坷垃传说》 Jul 26, 2019 FreeN/A (N/A)50,000 .. 100,0000%00:00 (00:00)小闲小闲
130 Gythol Granditti: The Crypt of Darkness Jul 19, 2019 FreeN/A (N/A)20,000 .. 50,0000%00:00 (00:00)GZ StormGZ Storm
131 Conqueror's Blade May 30, 2019 FreeN/A (N/A)2,000,000 .. 5,000,0000.74%00:01 (00:00)Booming TechMY.GAMES
132 Minion Masters May 24, 2019 FreeN/A (N/A)5,000,000 .. 10,000,0000.23%00:55 (00:27)BetaDwarfBetaDwarf
133 Goblin Squad - Total Division May 10, 2019 N/AN/A (N/A)0 .. 20,0000%00:00 (00:00)Event Horizon Studios34BigThings srl
134 Margonem Feb 20, 2019 FreeN/A (N/A)50,000 .. 100,0000%00:00 (00:00)GarmoryGarmory
135 東方翠神廻廊 〜 Faith in the Goddess of Suwa. Feb 11, 2019 FreeN/A (N/A)100,000 .. 200,0000%00:00 (00:00)T.DT.D
136 Age of Fear: The Free World Jan 18, 2019 FreeN/A (N/A)100,000 .. 200,0000%00:00 (00:00)Leslaw SliwkoAge of Fear
137 Chaordic Dec 17, 2018 FreeN/A (N/A)0 .. 20,0000%00:00 (00:00)Artepi CorporationArtepi Corporation
138 Sky Clash: Lords of Clans 3D Sep 5, 2018 FreeN/A (N/A)100,000 .. 200,0000%00:00 (00:00)AIVIK LLCAbsolutist Ltd.
139 Find & Destroy: Tank Strategy Jun 12, 2018 FreeN/A (N/A)20,000 .. 50,0000%00:00 (00:00)mPower Games StudiomPower Games Studio
140 Tactical Monsters Rumble Arena Jan 31, 2018 N/AN/A (N/A)500,000 .. 1,000,0000%00:00 (00:00)Camex GamesCamex Games
141 Clarent Saga: Tactics Sep 25, 2017 FreeN/A (N/A)0 .. 20,0000%00:00 (00:00)David NguyenDavid Nguyen
142 Warbands: Bushido Sep 15, 2017 FreeN/A (N/A)100,000 .. 200,0000%00:00 (00:00)Red Unit StudiosRed Unit Studios
143 Heroes Tactics May 24, 2017 N/AN/A (N/A)100,000 .. 200,0000%00:00 (00:00)Camex GamesCamex Games
144 Dragon Awaken Jan 3, 2017 FreeN/A (N/A)50,000 .. 100,0000%00:00 (00:00)Game HollywoodGlobal Genom Corporate
145 Heroes Must Die Jul 15, 2016 FreeN/A (N/A)0 .. 20,0000%00:00 (00:00)Heroic GamesHeroic Games
146 Forge of Gods (RPG) May 6, 2016 N/AN/A (N/A)500,000 .. 1,000,0000%00:00 (00:00)Panoramik IncPanoramik Inc
147 Avalon Lords: Dawn Rises Apr 2016 N/AN/A (N/A)0 .. 20,0000%00:00 (00:00)Animus Interactive IncAnimus Interactive Inc
148 Labyrinth Mar 7, 2016 N/AN/A (N/A)50,000 .. 100,0000%00:00 (00:00)Free Range GamesFree Range Games
149 NAVYFIELD Mar 18, 2000 N/AN/A (N/A)200,000 .. 500,0000%00:00 (00:00)SDEnterNETNaiadgames
150 Bargue Jun 17, 2022 $1.99N/A (N/A)0 .. 20,0000%00:00 (00:00)Evenmore GamesEvenmore Games
151 Super Stupid Game Jun 17, 2022 FreeN/A (N/A)0 .. 20,0000%00:00 (00:00)JRPG.NovelsJRPG.Novels
152 Code 3: Police Response Jun 15, 2022 $12.74N/A (N/A)0 .. 20,0000%00:00 (00:00)109 Below109 Below
153 The Hand of Merlin Jun 14, 2022 $24.99N/A (N/A)0 .. 20,0000%00:00 (00:00)Room-C Games, CroteamVersus Evil
154 Keita's Adventures on the African Savannah Jun 12, 2022 $1.99N/A (N/A)0 .. 20,0000%00:00 (00:00)African boy Keita studioAfrican boy Keita studio
155 Cool Game Jun 10, 2022 $0.99N/A (N/A)20,000 .. 50,0000%00:00 (00:00)Cool Games StudioCool Games Studio
156 METAL MAX Xeno Reborn Jun 10, 2022 $39.99N/A (N/A)0 .. 20,0000%00:00 (00:00)24Frame,inc.PQube
157 Symphony of War: The Nephilim Saga Jun 10, 2022 $11.99N/A (N/A)500,000 .. 1,000,0006.25%00:46 (00:23)Dancing Dragon GamesFreedom Games
158 COPS 2170 The Power of Law Jun 10, 2022 $11.99N/A (N/A)0 .. 20,0000%00:00 (00:00)GFIGFI
159 EMPYRE: Dukes of the Far Frontier Jun 3, 2022 $19.99N/A (N/A)50,000 .. 100,0000%00:00 (00:00)Coin Operated GamesWork Shift Play Inc.
160 Grim Tranquility Jun 1, 2022 $14.99N/A (N/A)20,000 .. 50,0000%00:00 (00:00)Poorly Timed Games, LLCPoorly Timed Games, LLC
161 Tinyfolks Jun 1, 2022 $3.99N/A (N/A)100,000 .. 200,0000%00:00 (00:00)Pierre VandermaesenVANDERMAESEN GAMES
162 Dwerve May 31, 2022 $19.99N/A (N/A)20,000 .. 50,0000%00:00 (00:00)Half Human GamesHalf Human Games, Electronic Sheep Games
163 Project: Maidenless May 27, 2022 $0.99N/A (N/A)0 .. 20,0000%00:00 (00:00)Grossly Incandescent GamesGrossly Incandescent Games
164 Fabled Lands May 26, 2022 $18.99N/A (N/A)20,000 .. 50,0000%00:00 (00:00)Prime GamesPrime Games
165 Obsidian Prince May 24, 2022 $14.99N/A (N/A)0 .. 20,0000%00:00 (00:00)Unleash The GiraffeUnleash The Giraffe, Gameclaw Studio
166 虚幻宇宙:重启 May 23, 2022 $5.99N/A (N/A)50,000 .. 100,0000%00:00 (00:00)云瑞同志云瑞同志
167 Ninja Village May 22, 2022 $8.99N/A (N/A)0 .. 20,0000%00:00 (00:00)Kairosoft Co.,LtdKairosoft Co.,Ltd
168 Maroon Berets: 2030 May 19, 2022 $2.47N/A (N/A)0 .. 20,0000%00:00 (00:00)Maroon Berets: 2030Maroon Berets: 2030
169 GOC Royale May 18, 2022 $2.99N/A (N/A)0 .. 20,0000%00:00 (00:00)Game of CardsGame of Cards
170 封妖录 May 18, 2022 $2.99N/A (N/A)0 .. 20,0000%00:00 (00:00)青灯独酌青灯独酌
171 Ralph's party RPG May 17, 2022 $0.99N/A (N/A)50,000 .. 100,0000%00:00 (00:00)Samuvt2Samuvt2
172 Aurelia: Stellar Arising May 16, 2022 $1.99N/A (N/A)0 .. 20,0000%00:00 (00:00)A Stormy View Interactive LLCA Stormy View Interactive LLC
173 风墓战记 May 15, 2022 $0.99N/A (N/A)50,000 .. 100,0000%00:00 (00:00)DogShitStudioDogShitStudio
174 StressTest May 14, 2022 $4.99N/A (N/A)20,000 .. 50,0000%00:00 (00:00)FareedBhagwansingh, FlgamingFareed Bhagwansingh
175 Scholar May 13, 2022 $1.74N/A (N/A)0 .. 20,0000%00:00 (00:00)cosmic_dustcosmic_dust
176 Songs of Conquest May 10, 2022 $34.99N/A (N/A)500,000 .. 1,000,0009.09%03:39 (03:38)LavapotionCoffee Stain Publishing
177 Valley Knights May 6, 2022 FreeN/A (N/A)20,000 .. 50,0000%00:00 (00:00)Long Road GamesLong Road Games
178 Yaengard May 5, 2022 $24.99N/A (N/A)0 .. 20,0000%00:00 (00:00)Planeshift InteractivePlaneshift Interactive
179 The Revenge of Mr.Samuel May 4, 2022 $1.99N/A (N/A)0 .. 20,0000%00:00 (00:00)Babbosa StudiosBabbosa Studios
180 Age of Grit May 3, 2022 $14.99N/A (N/A)0 .. 20,0000%00:00 (00:00)IQ SoupIQ Soup
181 流放之域 May 1, 2022 $1.99N/A (N/A)0 .. 20,0000%00:00 (00:00)利贝尔村夫利贝尔村夫
182 Dungeon Reels Tactics May 1, 2022 $14.99N/A (N/A)0 .. 20,0000%00:00 (00:00)Grandma's Basement GamesGrandma's Basement Games
183 DUST - A Post Apocalyptic RPG May 1, 2022 $4.99N/A (N/A)20,000 .. 50,0000%00:00 (00:00)SEGEDI INC.SEGEDI INC.
184 Burning Faith Apr 29, 2022 $5.99N/A (N/A)20,000 .. 50,0000%00:00 (00:00)War Cry StudiosAldorlea Games
185 Kaiju Wars Apr 28, 2022 $19.99N/A (N/A)20,000 .. 50,0000%00:00 (00:00)Foolish Mortals Games, Michael LongFoolish Mortals Games
186 Dungeon Rummage - Tiqee's Escape Apr 28, 2022 $2.99N/A (N/A)20,000 .. 50,0000%00:00 (00:00)Simple GamingSimple Gaming
187 King Arthur: Knight's Tale Apr 26, 2022 $44.99N/A (N/A)200,000 .. 500,0000%00:00 (00:00)NeocoreGamesNeocoreGames
188 鬥犬 Dog Fighting Apr 24, 2022 $4.99N/A (N/A)0 .. 20,0000%00:00 (00:00)LivelyO2LivelyO2
189 The Eternal Battlefields Apr 23, 2022 $9.99N/A (N/A)0 .. 20,0000%00:00 (00:00)YAK GAMESYAK GAMES
190 Six Aspects Apr 22, 2022 $24.99N/A (N/A)0 .. 20,0000%00:00 (00:00)Charles ZammitLancer Entertainment LLC
191 Unconventional Warfare Apr 21, 2022 $9.99N/A (N/A)0 .. 20,0000%00:00 (00:00)Nightlife StrangersNightlife Strangers
192 Daldos Apr 18, 2022 $7.99N/A (N/A)0 .. 20,0000%00:00 (00:00)Vanaheim TeamVanaheim Team
193 Enemy Engaged 2: Desert Operations Apr 18, 2022 $8.99N/A (N/A)50,000 .. 100,0000%00:00 (00:00)G2 GamesStrategy First
194 S E V E R A N C E Apr 16, 2022 $1.99N/A (N/A)200,000 .. 500,0000%00:00 (00:00)Polybit_GamePolybit_Game
195 Paths & Danger Apr 15, 2022 $9.99N/A (N/A)20,000 .. 50,0000%00:00 (00:00)GoldenGod GamesGoldenGod Games
196 Zoo Tales Apr 14, 2022 $9.99N/A (N/A)0 .. 20,0000%00:00 (00:00)Soein Studio, ChiEn, 十六椰子Soein Studio, ChiEn
197 Woods of Death 2 Apr 8, 2022 $3.99N/A (N/A)0 .. 20,0000%00:00 (00:00)Michael J WoodMichael J Wood
198 Circle Empires Tactics Apr 7, 2022 $15.99N/A (N/A)50,000 .. 100,0000%00:00 (00:00)LuminousIceberg Interactive
199 Outbreak: Contagious Memories Apr 6, 2022 $29.99N/A (N/A)0 .. 20,0000%00:00 (00:00)Dead Drop Studios LLCDead Drop Studios LLC
200 Police Response VR : Disturbance Apr 6, 2022 $4.99N/A (N/A)0 .. 20,0000%00:00 (00:00)Caltain VR LtdCaltain VR Ltd
201 Healing Simulator Apr 5, 2022 $2.99N/A (N/A)0 .. 20,0000%00:00 (00:00)Jens RoderusJens Roderus
202 Leman Apr 1, 2022 $24.99N/A (N/A)0 .. 20,0000%00:00 (00:00)MDH SoftwareMDH Software
203 Agent Roswell : Tactics Apr 1, 2022 N/AN/A (N/A)20,000 .. 50,0000%00:00 (00:00)DeletedDeleted
204 Grim Quest - Old School RPG Apr 1, 2022 $5.99N/A (N/A)0 .. 20,0000%00:00 (00:00)MonomythMonomyth
205 Samurai(The Rise Of Warrior)- 武士の台頭 Mar 31, 2022 $7.99N/A (N/A)0 .. 20,0000%00:00 (00:00)RABIE MOUNTHER TURKI HADDADJESUS LOVERS
206 Sweet Surge Mar 30, 2022 $3.99N/A (N/A)0 .. 20,0000%00:00 (00:00)Chocolate Ship GamesChocolate Ship Games
207 Tavolga-12 Mar 29, 2022 $14.99N/A (N/A)0 .. 20,0000%00:00 (00:00)Two DogsTwo Dogs
208 Knights of the Chalice 2 Mar 25, 2022 $44.99N/A (N/A)0 .. 20,0000%00:00 (00:00)Heroic Fantasy Games Dot ComHeroic Fantasy Games Dot Com
209 执剑九霄 Mar 24, 2022 $3.5N/A (N/A)100,000 .. 200,0000%00:00 (00:00)K.Kaiser's Game StudioK.Kaiser's Game Studio
210 PARTY RUSH!! Mar 23, 2022 $9.99N/A (N/A)200,000 .. 500,0000%00:00 (00:00)SECHANHIKE Inc.
211 Hate Free Heroes Tactics: Strategy Building MMO Mar 22, 2022 N/AN/A (N/A)0 .. 20,0000%00:00 (00:00)Hate Free HeroesHate Free Heroes
212 Royal Frontier Mar 18, 2022 $6.99N/A (N/A)20,000 .. 50,0000%00:00 (00:00)WoblywareRatalaika Games S.L.
213 Iron Age Mar 18, 2022 $0.49N/A (N/A)0 .. 20,0000%00:00 (00:00)GeoTECHkovalevviktor
214 I Am Gangster Mar 18, 2022 FreeN/A (N/A)0 .. 20,0000%00:00 (00:00)ThisisdemoThisisdemo
215 Black Geyser: Couriers of Darkness Mar 17, 2022 $29.99N/A (N/A)100,000 .. 200,0000%00:00 (00:00)GrapeOcean TechnologiesV Publishing, GrapeOcean Technologies
216 World Titans War Mar 17, 2022 $14.99N/A (N/A)50,000 .. 100,0000%00:00 (00:00)PROMVI GAMESPROMVI GAMES
217 Escape from Cronos X Mar 15, 2022 $7.99N/A (N/A)20,000 .. 50,0000%00:00 (00:00)Request LogicRequest Logic AS (Ltd)
218 RoguePG Mar 15, 2022 $0.99N/A (N/A)0 .. 20,0000%00:00 (00:00)Tayler TolmanTMT Studios
219 Telepath Tactics Liberated Mar 14, 2022 $14.99N/A (N/A)20,000 .. 50,0000%00:00 (00:00)Sinister DesignFreedom Games
220 Elteria Hunter Mar 10, 2022 FreeN/A (N/A)20,000 .. 50,0000%00:00 (00:00)CH-Gaming StudioCH-Gaming Studio
221 Quickflash - A Fabula Story Mar 9, 2022 $5.99N/A (N/A)0 .. 20,0000%00:00 (00:00)4E Game Studio4E Publisher
222 Hidden Post-Apocalyptic Top-Down 3D Mar 9, 2022 $9.99N/A (N/A)0 .. 20,0000%00:00 (00:00)Top-Down GamesHede
223 Hidden Build Top-Down 3D Mar 8, 2022 $9.99N/A (N/A)0 .. 20,0000%00:00 (00:00)Top-Down GamesHede
224 Barry of Wrath Mar 4, 2022 $14.99N/A (N/A)0 .. 20,0000%00:00 (00:00)Wolfs Moon StudiosWolfs Moon Studios
225 Legend of Ixtona Mar 3, 2022 $14.99N/A (N/A)20,000 .. 50,0000%00:00 (00:00)WorldWideSoftwareKEMCO
226 Dark Dragonkin Mar 1, 2022 $9.99N/A (N/A)50,000 .. 100,0000%00:00 (00:00)TwintertainmentTwintertainment
227 Initium Legenda Feb 25, 2022 $4.99N/A (N/A)0 .. 20,0000%00:00 (00:00)LEGENDA Inc.LEGENDA Inc.
228 Plentypede Feb 22, 2022 $3.99N/A (N/A)0 .. 20,0000%00:00 (00:00)CRX Entertainment Pte LtdFavour Toys Studios
229 Moonbase Down Feb 22, 2022 $2.99N/A (N/A)0 .. 20,0000%00:00 (00:00)Advent RPGAdvent RPG
230 El Mucho Feb 20, 2022 $7.99N/A (N/A)0 .. 20,0000%00:00 (00:00)Andreas DahmLobo Corp.
231 Cascade Tactics Feb 17, 2022 $7.99N/A (N/A)20,000 .. 50,0000%00:00 (00:00)Mythic Machine Software LLCMythic Machine Software LLC
232 PARACHUTER Feb 17, 2022 $1.99N/A (N/A)50,000 .. 100,0000%00:00 (00:00)PTLPTL
233 Spelldrifter Feb 15, 2022 $19.99N/A (N/A)0 .. 20,0000%00:00 (00:00)Free Range GamesFree Range Games
234 Faye: A Tale of Shadow Feb 14, 2022 $19.99N/A (N/A)50,000 .. 100,0000%00:00 (00:00)Night Stroll StudioNight Stroll Studio
235 梅斯特姆 Feb 12, 2022 $11.99N/A (N/A)0 .. 20,0000%00:00 (00:00)Pyraminx SoftPyraminx Soft
236 幻梦之城(C T O D) Feb 10, 2022 $0.99N/A (N/A)0 .. 20,0000%00:00 (00:00)zhi wen zhangzhi wen zhang
237 Kingso Feb 10, 2022 $0.99N/A (N/A)20,000 .. 50,0000%00:00 (00:00)RAD TeamRAD Team
238 Sugar Story Feb 9, 2022 $2.99N/A (N/A)100,000 .. 200,0000%00:00 (00:00)Source Byte Sp. z o.o., Nikodem ŚwiderSource Byte Sp. z o.o.
239 Monsters and Weapons Feb 9, 2022 $4.99N/A (N/A)0 .. 20,0000%00:00 (00:00)Bocary StudiosBocary Studios
240 西游戰棋(West Journey War) Feb 8, 2022 N/AN/A (N/A)0 .. 20,0000%00:00 (00:00)ZMEI StudioZMEI Studio
241 King of Heroes Feb 3, 2022 N/AN/A (N/A)0 .. 20,0000%00:00 (00:00)Paper Fan GamesPaper Fan Games
242 Nonstop Feb 1, 2022 $0.99N/A (N/A)0 .. 20,0000%00:00 (00:00)SensySensy
243 Downfall of Krynto Jan 26, 2022 $3.99N/A (N/A)0 .. 20,0000%00:00 (00:00)Sloppy Joe StudiosSloppy Joe Studios
244 Reverie Knights Tactics Jan 25, 2022 $19.99N/A (N/A)50,000 .. 100,0000%00:00 (00:00)40 Giants EntertainmentFulqrum Publishing
245 Mystery of Fortune 2 Refine Jan 24, 2022 N/AN/A (N/A)50,000 .. 100,0000%00:00 (00:00)Dotomchi Games Inc.Dotomchi Games Inc.
246 Samurai Tactics Jan 24, 2022 $3.99N/A (N/A)50,000 .. 100,0000%00:00 (00:00)AzumaAzuma Soft
247 瀚辰书院 Jan 19, 2022 $2.99N/A (N/A)0 .. 20,0000%00:00 (00:00)炀艺科技炀艺科技
248 The Monster Breeder Jan 19, 2022 $19.99N/A (N/A)0 .. 20,0000%00:00 (00:00)Fantasy CreationsFantasy Creations
249 Lost Scavenger Jan 18, 2022 $14.99N/A (N/A)20,000 .. 50,0000%00:00 (00:00)RockbeeRockbee
250 Warspace Jan 17, 2022 $4.69N/A (N/A)100,000 .. 200,0000%00:00 (00:00)Real GamerReal Gamer
251 Stand Of Arms Jan 16, 2022 $6.99N/A (N/A)0 .. 20,0000%00:00 (00:00)XF GameXF Game
252 A Noite Sem Fim Jan 15, 2022 $5.99N/A (N/A)50,000 .. 100,0000%00:00 (00:00)A GuildaA Guilda
253 Idle Calibur Jan 14, 2022 $7.99N/A (N/A)100,000 .. 200,0000%00:00 (00:00)绝汪DreamStep, 绝汪
254 Underground escape 地底逃生 Jan 14, 2022 $0.99N/A (N/A)0 .. 20,0000%00:00 (00:00)dongxujuandongxujuan
255 Mary Skelter 2 Jan 13, 2022 $34.99N/A (N/A)0 .. 20,0000%00:00 (00:00)Idea FactoryGhostlight LTD
256 Rising of the Moon - Part 1 Jan 7, 2022 $2.49N/A (N/A)20,000 .. 50,0000%00:00 (00:00)ValyutechnikValyutechnik
257 Monads II Dec 31, 2020 $14.99N/A (N/A)0 .. 20,0000%00:00 (00:00)Team MonadTeam Monad
258 VenusBlood HOLLOW International Jan 6, 2022 $44.99N/A (N/A)0 .. 20,0000%00:00 (00:00)Ninetail, DualtailJAST USA, Kagura Games (Chinese Version)
259 封神榜2022 Jan 6, 2022 $9.99N/A (N/A)50,000 .. 100,0000%00:00 (00:00)FC MakerFC Maker
260 F-Rank hero story Jan 4, 2022 $10.99N/A (N/A)0 .. 20,0000%00:00 (00:00)Funny game studioFunny game studio
261 Galactic Dreams Jan 4, 2022 $4.99N/A (N/A)0 .. 20,0000%00:00 (00:00)Evolution VaultStrategy First
262 超越海盗 Dec 31, 2021 FreeN/A (N/A)0 .. 20,0000%00:00 (00:00)四元方程四元方程
263 RED OPS ARCADE Dec 29, 2021 $2.99N/A (N/A)20,000 .. 50,0000%00:00 (00:00)RAIS Z.RAIDOKS GAMES
264 Watermelon Wars Dec 27, 2021 N/AN/A (N/A)0 .. 20,0000%00:00 (00:00)SleepFly 睡神飞SleepFly 睡神飞
265 Precursors: Armored Angels Dec 27, 2021 $12.99N/A (N/A)0 .. 20,0000%00:00 (00:00)Artificial Worlds Ltd.Artificial Worlds Ltd.
266 Item synthesis and dungeon exploration Dec 21, 2021 $6.99N/A (N/A)0 .. 20,0000%00:00 (00:00)OikariBunchoOikariBuncho
267 Trials of Proelium Dec 16, 2021 $11.99N/A (N/A)20,000 .. 50,0000%00:00 (00:00)Retroactive FortRetroactive Fort
268 Toy War - Cannon Dec 15, 2021 $9.99N/A (N/A)0 .. 20,0000%00:00 (00:00)HedeHede
269 The Thorn of Warldia Dec 10, 2021 $1.99N/A (N/A)0 .. 20,0000%00:00 (00:00)WendtOnGamesWendtOnGames
270 World of Bärn Dec 9, 2021 $49.99N/A (N/A)0 .. 20,0000%00:00 (00:00)Ready To PlayReady To Play
271 Wolfstride Dec 7, 2021 $14.99N/A (N/A)100,000 .. 200,0000%00:00 (00:00)OTA IMON StudiosRaw Fury
272 Defenders Glory Dec 6, 2021 $9.99N/A (N/A)0 .. 20,0000%00:00 (00:00)Derek Eduardo GonçalvesLoris Studio
273 Dragon Hunters Dec 3, 2021 $19.99N/A (N/A)100,000 .. 200,0000%00:00 (00:00)Sigonheart Games LLCSigonheart Games LLC
274 The Clockworker Dec 3, 2021 $1.99N/A (N/A)20,000 .. 50,0000%00:00 (00:00)Ixeria, MadBeeThe Broken Clock
275 Miasma 2: Freedom Uprising Dec 3, 2021 $2.99N/A (N/A)100,000 .. 200,0000%00:00 (00:00)ESP GamesDavid Addis
276 Mechajammer Dec 2, 2021 $24.99N/A (N/A)100,000 .. 200,0000%00:00 (00:00)Whalenought StudiosModern Wolf
277 Raptor Territory Nov 30, 2021 $0.99N/A (N/A)0 .. 20,0000%00:00 (00:00)RedClaw ProductionsRedClaw Productions
278 惊险极速 Nov 29, 2021 $6.99N/A (N/A)0 .. 20,0000%00:00 (00:00)个人个人
279 Heroes of Xanfurth Nov 25, 2021 FreeN/A (N/A)0 .. 20,0000%00:00 (00:00)Shatter Wing StudiosShatter Wing Studios
280 Philosopher's Stone and Minerva Nov 23, 2021 $3.99N/A (N/A)0 .. 20,0000%00:00 (00:00)HILAHILAMuso Project
281 Sidequest Nov 22, 2021 $14.99N/A (N/A)0 .. 20,0000%00:00 (00:00)Angry-fromunAngry-fromun
282 The Missing Link Nov 22, 2021 $6.99N/A (N/A)0 .. 20,0000%00:00 (00:00)Caico Morais de BritoCaico Morais de Brito
283 ball heroes Nov 16, 2021 $9.99N/A (N/A)0 .. 20,0000%00:00 (00:00)Chengdu Haowanyou Technologies Co., LtdChengdu Haowanyou Technologies Co., Ltd
284 问道仙途2 Nov 12, 2021 $2.99N/A (N/A)0 .. 20,0000%00:00 (00:00)青灯独酌青灯独酌
285 SAD RPG: A Social Anxiety Role Playing Game Nov 11, 2021 $7.99N/A (N/A)20,000 .. 50,0000%00:00 (00:00)Evil Indie GamesEvil Indie Games
286 HeroBattle Nov 11, 2021 $2.99N/A (N/A)20,000 .. 50,0000%00:00 (00:00)XUZHOU GETAI TRADING CO. LTDXUZHOU GETAI TRADING CO. LTD
287 Star Shift Origins Nov 8, 2021 FreeN/A (N/A)200,000 .. 500,0000%00:00 (00:00)Psychronic Game StudiosPsychronic Games
288 Lame Defenders Nov 8, 2021 $3.99N/A (N/A)0 .. 20,0000%00:00 (00:00)LameGamesLameGames
289 Unveiled Nov 5, 2021 $1.99N/A (N/A)20,000 .. 50,0000%00:00 (00:00)AnotherIndieGameDevAnotherIndieGameDev
290 Void Eclipse Nov 3, 2021 $29.99N/A (N/A)0 .. 20,0000%00:00 (00:00)Tau Ceti StudiosTau Ceti Studios
291 The Lost King of Avallon Nov 2, 2021 $14.99N/A (N/A)0 .. 20,0000%00:00 (00:00)Freeline Games GmbHFreeline Games GmbH
292 Broken Betrayal Nov 2021 $10.99N/A (N/A)0 .. 20,0000%00:00 (00:00)SparkyAlphaOne Games
293 Witches Vs. Demons Oct 28, 2021 $4.99N/A (N/A)20,000 .. 50,0000%00:00 (00:00)Egalitaria StudiosEgalitaria Studios
294 Defend the Rook Oct 26, 2021 $17.99N/A (N/A)50,000 .. 100,0000%00:00 (00:00)One Up PlusGoblinz Publishing, Maple Whispering Limited
295 Feign Oct 23, 2021 $4.99N/A (N/A)200,000 .. 500,0000%00:00 (00:00)Teneke KafalarTeneke Kafalar
296 Human Madness Oct 21, 2021 $7.99N/A (N/A)0 .. 20,0000%00:00 (00:00)The OneThe One
297 Disciples: Liberation Oct 21, 2021 $9.99N/A (N/A)100,000 .. 200,0000%00:00 (00:00)Frima StudioKalypso Media
298 制服少女 Oct 21, 2021 $0.99N/A (N/A)0 .. 20,0000%00:00 (00:00)小闲小闲
299 Spire of Sorcery Oct 21, 2021 $20N/A (N/A)0 .. 20,0000%00:00 (00:00)Charlie OscarCharlie Oscar
300 Legacy of Sin the father sacrifice Oct 20, 2021 $7.99N/A (N/A)0 .. 20,0000%00:00 (00:00)Absolute Power Game StudioAbsolute Power Game Studio
301 迅风的米斯特汀 Windy Mystletainn Oct 19, 2021 $0.49N/A (N/A)100,000 .. 200,0000%00:00 (00:00)索尼克冷笑黑妖
302 Delphyq Oct 19, 2021 $14.99N/A (N/A)100,000 .. 200,0000%00:00 (00:00)Dusk Wave Arts LLCDusk Wave Arts LLC
303 Fear Surrounds Oct 19, 2021 FreeN/A (N/A)500,000 .. 1,000,0005.88%08:38 (04:19)SaltyEgg StudioYooreka Studio
304 Content Creator's Internet Adventure Oct 14, 2021 $4.99N/A (N/A)20,000 .. 50,0000%00:00 (00:00)James R TrimbleSaladite Games
305 Gladiator Guild Manager Oct 13, 2021 $8.39N/A (N/A)200,000 .. 500,00010%04:28 (02:14)Entertainment ForgeGrabTheGames, Gamera Games, UpgradePoint
306 Dungeon Deathball Oct 13, 2021 $11.99N/A (N/A)20,000 .. 50,0000%00:00 (00:00)Matt GlanvilleMatt Glanville
307 Unionatic Oct 10, 2021 $7.99N/A (N/A)0 .. 20,0000%00:00 (00:00)Banana Jellybean StudiosBanana Jellybean Studios
308 Academy Quest | アカデミークエスト Oct 8, 2021 $13.99N/A (N/A)0 .. 20,0000%00:00 (00:00)つれづれつれづれ
309 Guile & Glory: Firstborn Oct 7, 2021 $9.99N/A (N/A)0 .. 20,0000%00:00 (00:00)Elston StudiosElston Studios
310 Eclipse Oct 7, 2021 $5.99N/A (N/A)100,000 .. 200,0000%00:00 (00:00)MadRockMadRock
311 Rescue Troopers Oct 5, 2021 $4.99N/A (N/A)0 .. 20,0000%00:00 (00:00)ssss
312 周松传 Oct 4, 2021 $0.99N/A (N/A)0 .. 20,0000%00:00 (00:00)周松传工作室周松传工作室
313 Angels vs Demons Oct 3, 2021 $1.09N/A (N/A)0 .. 20,0000%00:00 (00:00)wow wow Games wow wow Games
314 WizardChess Oct 1, 2021 $9.99N/A (N/A)100,000 .. 200,0000%00:00 (00:00)TwoPM Studios2 Left Thumbs
315 Touhou Monster TD ~ 幻想乡妖怪塔防 Oct 1, 2021 $18.99N/A (N/A)100,000 .. 200,0000%00:00 (00:00)MyACG StudioMyACG Studio
316 西游记2021 Sep 30, 2021 $9.99N/A (N/A)50,000 .. 100,0000%00:00 (00:00)FC MakerFC Maker
317 Tomes and Quests: a Word RPG Sep 30, 2021 $4.99N/A (N/A)0 .. 20,0000%00:00 (00:00)Trailblazer GamesTrailblazer Games
318 The Handler of Dragons Sep 27, 2021 $11.99N/A (N/A)0 .. 20,0000%00:00 (00:00)Hi-Quality Jerzy CalinskiSpirit Games Studio
319 Elementowers Sep 23, 2021 $12.99N/A (N/A)0 .. 20,0000%00:00 (00:00)Lemon SqueezyLemon Squeezy
320 Guild of Ascension Sep 21, 2021 $14.99N/A (N/A)0 .. 20,0000%00:00 (00:00)WhileOne ProductionsPID Games
321 Kingdom of Heroes Sep 20, 2021 $7.99N/A (N/A)0 .. 20,0000%00:00 (00:00)MoonlightGamesMoonlightGames
322 Everpixel Tactics Sep 17, 2021 $4.99N/A (N/A)0 .. 20,0000%00:00 (00:00)Doom Dino GamesDoom Dino Games
323 Mandinga - A Tale of Banzo Sep 17, 2021 $7.99N/A (N/A)20,000 .. 50,0000%00:00 (00:00)Uruca Game StudioUruca Game Studio
324 Grim wanderings 2 Sep 15, 2021 $5.99N/A (N/A)100,000 .. 200,0000%00:00 (00:00)Ellinia gamesEllinia games
325 ChibiClubTD Sep 14, 2021 $1.99N/A (N/A)0 .. 20,0000%00:00 (00:00)MHCMHC
326 Table of Tales: The Crooked Crown Sep 14, 2021 $19.99N/A (N/A)0 .. 20,0000%00:00 (00:00)Tin Man Games, Zero One StudioTin Man Games
327 Avalom: Ancestral Heroes Sep 13, 2021 $17.99N/A (N/A)0 .. 20,0000%00:00 (00:00)WAGNER ROCHAINDIE
328 Nilia Sep 12, 2021 $4.99N/A (N/A)20,000 .. 50,0000%00:00 (00:00)4 Hats4 Hats
329 ANCIENT EVIL Sep 11, 2021 $0.49N/A (N/A)0 .. 20,0000%00:00 (00:00)Wertex GamesGigantum Games
330 Terrain of Magical Expertise Sep 9, 2021 $19.99N/A (N/A)20,000 .. 50,0000%00:00 (00:00)NEO-C Productions L.L.CFulqrum Publishing
331 Ark of Loif Sep 7, 2021 $23N/A (N/A)20,000 .. 50,0000%00:00 (00:00)1/2ofOctahedron1/2ofOctahedron
332 Adventurers Guild Sep 6, 2021 $4.2N/A (N/A)20,000 .. 50,0000%00:00 (00:00)Game DeliveryGame Delivery
333 Hammerheart Sep 6, 2021 $10.99N/A (N/A)0 .. 20,0000%00:00 (00:00)Bennett FarmerBennett Farmer
334 Shawarma or Shaverma Sep 4, 2021 $0.99N/A (N/A)20,000 .. 50,0000%00:00 (00:00)Stas Paty9mkinPiece Of Voxel
335 Aurora - Hidden Colors Sep 2, 2021 $4.99N/A (N/A)100,000 .. 200,0000%00:00 (00:00)Aurora - Mídia & GamesAurora - Mídia & Games
336 Office Strike War - Multiplayer Battle Royale Sep 2, 2021 $24.99N/A (N/A)0 .. 20,0000%00:00 (00:00)Bad Kids GamestinyBuild
337 Soul Nomad & the World Eaters Aug 31, 2021 $19.99N/A (N/A)20,000 .. 50,0000%00:00 (00:00)Nippon Ichi Software, Inc., CodeglueNIS America, Inc.
338 The Curse of Feldar Vale Aug 30, 2021 $4.99N/A (N/A)0 .. 20,0000%00:00 (00:00)Ian C PookPaphian Games
339 Three Fairies' Hoppin' Flappin' Great Journey! Aug 27, 2021 $17.99N/A (N/A)0 .. 20,0000%00:00 (00:00)yomogi_softPhoenixx Inc.
340 Der Geisterjäger / The Ghost Hunter Aug 26, 2021 $10.79N/A (N/A)20,000 .. 50,0000%00:00 (00:00)Graverobber FoundationGraverobber Foundation
341 Elmarion: the Lost Temple Aug 26, 2021 $14.99N/A (N/A)0 .. 20,0000%00:00 (00:00)Fleon GamesFleon Games
342 Captures Aug 26, 2021 $0.79N/A (N/A)20,000 .. 50,0000%00:00 (00:00)cosmic_dustcosmic_dust
343 Ultimate ADOM - Caverns of Chaos Aug 25, 2021 $19.99N/A (N/A)50,000 .. 100,0000%00:00 (00:00)Thomas Biskup, Jochen Terstiege, Krzysztof Dycha, Lucas Dieguez, Bastian von Gostomski, Carola Sochiera, Björn LoesingAssemble Entertainment, WhisperGames
344 Googass Aug 25, 2021 $0.69N/A (N/A)0 .. 20,0000%00:00 (00:00)Brewsterland StudiosBrewsterland Studios
345 King's Bounty II Aug 24, 2021 $39.99N/A (N/A)200,000 .. 500,0000%00:00 (00:00)Fulqrum GamesFulqrum Publishing, Prime Matter, 方块游戏 (China)
346 LABYRINTH OF TOUHOU - GENSOKYO AND THE HEAVEN-PIERCING TREE Aug 23, 2021 $29.99N/A (N/A)20,000 .. 50,0000%00:00 (00:00)Nise-Eikoku Studio, CUBETYPECUBETYPE
347 UFO vs Bikini Aug 23, 2021 $8.99N/A (N/A)0 .. 20,0000%00:00 (00:00)Xenon LuWELOVEBOT CO., LTD.
348 Heroes of Yore Aug 23, 2021 $6.99N/A (N/A)0 .. 20,0000%00:00 (00:00)Vogel Vision LLCVogel Vision LLC
349 Station Commander Aug 23, 2021 $7.99N/A (N/A)50,000 .. 100,0000%00:00 (00:00)Ben Marks Game StudiosBen Marks Game Studios
350 Project Martians Aug 22, 2021 $7.99N/A (N/A)0 .. 20,0000%00:00 (00:00)Stanislaw DevStanislaw Dev
351 Nayati River Aug 20, 2021 $4.99N/A (N/A)0 .. 20,0000%00:00 (00:00)Worlds To PlayWorlds To Play
352 Bionite: Origins Aug 13, 2021 $11.99N/A (N/A)0 .. 20,0000%00:00 (00:00)Platoon StudiosPlatoon Studios
353 Endorfire Tower Defense Aug 13, 2021 $9.99N/A (N/A)20,000 .. 50,0000%00:00 (00:00)The ZooThe Zoo
354 Dust to the End Aug 11, 2021 $11.99N/A (N/A)100,000 .. 200,0000%00:00 (00:00)Haojoy Game, Zjoy Game2P Games
355 The Last Hope: Zombie Defense TD Aug 10, 2021 $1.99N/A (N/A)0 .. 20,0000%00:00 (00:00)DUK GamesDUK Games
356 团长别生气 Aug 5, 2021 N/AN/A (N/A)0 .. 20,0000%00:00 (00:00)掌烛文化掌烛文化
357 Man of the World Jul 13, 2022 $2.99N/A (N/A)0 .. 20,0000%00:00 (00:00)redduckstudioredduckstudio
358 GATE Jul 30, 2021 $8.99N/A (N/A)0 .. 20,0000%00:00 (00:00)Banshee CatBanshee Cat
359 Smithy Wars Jul 30, 2021 $3.99N/A (N/A)0 .. 20,0000%00:00 (00:00)Bigboot StudiosBigboot Studios
360 The Vagabond Emperor Jul 29, 2021 $19.99N/A (N/A)0 .. 20,0000%00:00 (00:00)WigglingEyebrowsWigglingEyebrows
361 Animus: Revenant Jul 28, 2021 $14.99N/A (N/A)20,000 .. 50,0000%00:00 (00:00)TenbirdsTenbirds
362 RPG: Squad battle Jul 22, 2021 $0.74N/A (N/A)0 .. 20,0000%00:00 (00:00)Tero Lunkka, Valkeala SoftwareTero Lunkka
363 Renova Jul 20, 2021 $8.99N/A (N/A)0 .. 20,0000%00:00 (00:00)Teutonic GamesTeutonic Games
364 Tactical Vanguard Saga Jul 20, 2021 $4.99N/A (N/A)100,000 .. 200,0000%00:00 (00:00)Blacc Ski Weekend IndustriesBlacc Ski Weekend Industries
365 The Protagonist: EX-1 Jul 18, 2021 $13.99N/A (N/A)20,000 .. 50,0000%00:00 (00:00)3Mind Games3Mind Games
366 Pest Control Jul 15, 2021 $3.99N/A (N/A)0 .. 20,0000%00:00 (00:00)EON46Ritual Interactive
367 S.O.T.A 2 Jul 14, 2021 $4.99N/A (N/A)20,000 .. 50,0000%00:00 (00:00)S.O.T.A GamesS.O.T.A Games
368 There May Be Ninety-Nine Of Us, But We Have To Win In Ninety-Nine Turns! Jul 14, 2021 $1.99N/A (N/A)0 .. 20,0000%00:00 (00:00)Cannibal InteractiveCannibal Interactive
369 NEO: Commanders Jul 9, 2021 $4.99N/A (N/A)0 .. 20,0000%00:00 (00:00)SZEINERSZEINER
370 明明如月 Jul 2, 2021 $5.99N/A (N/A)0 .. 20,0000%00:00 (00:00)希言游戏希言游戏
371 Kuro Tactics Jul 1, 2021 $2.99N/A (N/A)50,000 .. 100,0000%00:00 (00:00)KurowareLLCKurowareLLC
372 Mecha Tactics Jun 28, 2021 $3.99N/A (N/A)20,000 .. 50,0000%00:00 (00:00)Nullio GamesNullio Games
373 Eiyu*Senki Gold – A New Conquest Jun 25, 2021 $34.99N/A (N/A)20,000 .. 50,0000%00:00 (00:00)TencoJAST USA, Kagura Games (Chinese Localization)
374 Endless Love Jun 22, 2021 $6.99N/A (N/A)0 .. 20,0000%00:00 (00:00)Rosa Special StudioRosa Special Studio
375 The Legends in Kylamar Jun 21, 2021 $7.99N/A (N/A)0 .. 20,0000%00:00 (00:00)Gamma Knight StudiosGamma Knight Studios
376 DREAM TIME Jun 18, 2021 $7.99N/A (N/A)0 .. 20,0000%00:00 (00:00)AI mainland Game studioAI mainland Game studio
377 Amneron's Legacy Jun 17, 2021 $8.99N/A (N/A)20,000 .. 50,0000%00:00 (00:00)Rythane (JRH)Rythane (JRH)
378 UFO2: Extraterrestrials Jun 15, 2021 $34.99N/A (N/A)20,000 .. 50,0000%00:00 (00:00)Chaos ConceptChaos Concept
379 The Girl Who Sees Jun 11, 2021 $8.99N/A (N/A)50,000 .. 100,0000%00:00 (00:00)InterIntellectus NFPInterIntellectus NFP
380 仙路志异 Jun 10, 2021 N/AN/A (N/A)0 .. 20,0000%00:00 (00:00)Big Flag StudioBig Flag Studio
381 Warlike Jun 10, 2021 $3.99N/A (N/A)20,000 .. 50,0000%00:00 (00:00)Peter KnakPeter Knak
382 Rise Eterna Jun 9, 2021 $19.99N/A (N/A)0 .. 20,0000%00:00 (00:00)Makee, Forever Entertainment S. A.Forever Entertainment S. A.
383 Defense Tower Simulator Jun 5, 2021 $1.99N/A (N/A)0 .. 20,0000%00:00 (00:00)CoolCraftGames CoolCraftGames
384 The Handbook Jun 4, 2021 $5.99N/A (N/A)20,000 .. 50,0000%00:00 (00:00)Ivories StudiosIvories Studios
385 Infiltration: Alone in Combat Jun 2, 2021 $1.99N/A (N/A)50,000 .. 100,0000%00:00 (00:00)Elvio LujánElvio Luján
386 Love n War: Warlord by Chance May 28, 2021 $2.99N/A (N/A)50,000 .. 100,0000%00:00 (00:00)Reborn EntertainmentReborn Entertainment
387 Album Corvus May 21, 2021 $12.99N/A (N/A)0 .. 20,0000%00:00 (00:00)Devil's Dozen GamesDevil's Dozen Games
388 Rise of the Slime May 20, 2021 $14.99N/A (N/A)0 .. 20,0000%00:00 (00:00)Bunkovsky Games
389 Metaverse: Origins May 17, 2021 $9.99N/A (N/A)0 .. 20,0000%00:00 (00:00)Penumbra.techPenumbra.tech
390 Deck Adventurers - Origins May 14, 2021 $6.99N/A (N/A)0 .. 20,0000%00:00 (00:00)JunjoJunjo
391 Chroma Quaternion May 6, 2021 $14.99N/A (N/A)0 .. 20,0000%00:00 (00:00)Exe Create Inc.KEMCO
392 Keezeh The Spector of Time May 2, 2021 $2.99N/A (N/A)0 .. 20,0000%00:00 (00:00)rabbani prottoychalidus
393 Age of Fear 4: The Iron Killer Apr 30, 2021 $14.99N/A (N/A)0 .. 20,0000%00:00 (00:00)Leslaw SliwkoAge of Fear
394 Heaven vs Hell Apr 27, 2021 $2.99N/A (N/A)0 .. 20,0000%00:00 (00:00)Neex GamesGreenolor Studio
395 Elixir of Life Apr 26, 2021 $6.99N/A (N/A)0 .. 20,0000%00:00 (00:00)Gurcan GamesGurcan Games
396 Katja's Abyss: Tactics Apr 23, 2021 $4.99N/A (N/A)100,000 .. 200,0000%00:00 (00:00)Kiefer NemethKiefer Nemeth
397 NovaMundi Apr 13, 2021 $12.99N/A (N/A)0 .. 20,0000%00:00 (00:00)Slashware InteractiveSlashware Interactive
398 Across the Obelisk Apr 8, 2021 $19.99N/A (N/A)500,000 .. 1,000,0000%00:00 (00:00)Dreamsite GamesParadox Interactive, Paradox Arc
399 Strike Team Gladius Apr 8, 2021 $24.99N/A (N/A)0 .. 20,0000%00:00 (00:00)Wave Light Games Inc.Wave Light Games Inc.
400 Sentinel: Cursed Knight Aug 10, 2021 $4.99N/A (N/A)100,000 .. 200,0000%00:00 (00:00)Sentinel StudiosSentinel Studios
401 Tactical Battle Chronicles: Prelude to a War Apr 7, 2021 $14.99N/A (N/A)0 .. 20,0000%00:00 (00:00)Andrew GardnerAndrew Gardner
402 FPS Tactics Apr 5, 2021 $199.99N/A (N/A)0 .. 20,0000%00:00 (00:00)HedeHede
403 Chesstle Apr 2, 2021 $4.99N/A (N/A)0 .. 20,0000%00:00 (00:00)Devil Kitty Games, LLCDevil Kitty Games, LLC
404 下一站江湖Ⅰ Apr 1, 2021 $19.99N/A (N/A)20,000 .. 50,0000%00:00 (00:00)白玉京工作室成都搜发互娱网络科技有限公司
405 Dee-6: Dice Defenders Apr 1, 2021 $4.99N/A (N/A)0 .. 20,0000%00:00 (00:00)KBA3u's factoryKBA3u's factory
406 Apollyon: River of Life Mar 31, 2021 $14.99N/A (N/A)0 .. 20,0000%00:00 (00:00)theplanardansetheplanardanse
407 Insanium Mar 31, 2021 $3.99N/A (N/A)20,000 .. 50,0000%00:00 (00:00)Conan McPhee, Joe AssiCatsmeat Studios
408 REM Cycles Mar 31, 2021 $14.99N/A (N/A)0 .. 20,0000%00:00 (00:00)Indispensable StudiosIndispensable Studios
409 守卫魔兽-Guardian of Warcraft Mar 26, 2021 $0.99N/A (N/A)0 .. 20,0000%00:00 (00:00)长生长生
410 Dragon Blast - Crazy Action Super Hero Game Mar 26, 2021 $0.99N/A (N/A)0 .. 20,0000%00:00 (00:00)Blazio StudiosUY Studios
411 Black Legend Mar 25, 2021 $19.99N/A (N/A)20,000 .. 50,0000%00:00 (00:00)WarcaveWarcave
412 Realms of Antiquity: The Shattered Crown Dec 29, 2020 $20N/A (N/A)0 .. 20,0000%00:00 (00:00)Adam HaaseQuixotic Software
413 Burg Battle Mar 22, 2021 N/AN/A (N/A)0 .. 20,0000%00:00 (00:00)ElevenSeventy, LLCElevenSeventy, LLC
414 Battle for Esturia Mar 19, 2021 $9.99N/A (N/A)20,000 .. 50,0000%00:00 (00:00)Esturia GamesEsturia Games
415 Golden Fall 2 Mar 21, 2021 $1.49N/A (N/A)0 .. 20,0000%00:00 (00:00)Ofer RubinsteinOfer Rubinstein
416 Magellania Mar 18, 2021 $9.99N/A (N/A)20,000 .. 50,0000%00:00 (00:00)IllunsoftIllunsoft
417 Majestic Trials Mar 11, 2021 $14.99N/A (N/A)50,000 .. 100,0000%00:00 (00:00)Alpha Strike Games LimitedAlpha Strike Games Limited
418 Game Master Engine Mar 9, 2021 FreeN/A (N/A)0 .. 20,0000%00:00 (00:00)Game Master Studios LLCGame Master Studios LLC
419 ChessLocke Mar 4, 2021 $1.04N/A (N/A)0 .. 20,0000%00:00 (00:00)Taylor HattonTaylor "Loxxulus" Hatton
420 Synth War Tactics Mar 2, 2021 $0.99N/A (N/A)0 .. 20,0000%00:00 (00:00)Bryce HochstedlerBryce Hochstedler
421 Urtuk: The Desolation Feb 27, 2021 $19.99N/A (N/A)50,000 .. 100,0000%00:00 (00:00)David KaletaDavid Kaleta
422 Kitty Tactics Feb 24, 2021 $3.99N/A (N/A)20,000 .. 50,0000%00:00 (00:00)Ibe DenauxIbe Denaux
423 Might is Right Feb 19, 2021 $9.99N/A (N/A)0 .. 20,0000%00:00 (00:00)Lazy KittyLazy Kitty
424 Steven Universe: Unleash the Light Feb 19, 2021 $24.99N/A (N/A)50,000 .. 100,0000%00:00 (00:00)Grumpyface StudiosCartoon Network Games
425 Shores Unknown Feb 17, 2021 $19.99N/A (N/A)0 .. 20,0000%00:00 (00:00)VallynneHitcents
426 Bravery Network Online Feb 16, 2021 $24.99N/A (N/A)0 .. 20,0000%00:00 (00:00)GLOAMGLOAM
427 ROGUERIA: Roguelikes X Tactics Feb 13, 2021 $14.49N/A (N/A)0 .. 20,0000%00:00 (00:00)Waxycorn Studio.Waxycorn Studio.
428 CELLAR | Roguelike + Quest Feb 10, 2021 $9.99N/A (N/A)20,000 .. 50,0000%00:00 (00:00)Pavel DivnenkoPavel Divnenko
429 Magical Battle Cry Feb 8, 2021 $19.99N/A (N/A)50,000 .. 100,0000%00:00 (00:00)羲和工作室羲和工作室
430 Killer 19 May 9, 2021 $0.99N/A (N/A)50,000 .. 100,0000%00:00 (00:00)SkyLine Studio, 熊昊思成, 徐熙尧SkyLine Studio
431 Hell Shuffle Feb 5, 2021 $14.99N/A (N/A)0 .. 20,0000%00:00 (00:00)Sunny NightsSunny Nights
432 No.L85 Feb 2, 2021 FreeN/A (N/A)0 .. 20,0000%00:00 (00:00)LiZhengLiZheng
433 Fractalis Feb 2, 2021 $7.99N/A (N/A)20,000 .. 50,0000%00:00 (00:00)Revolutionary InteractiveRevolutionary Interactive
434 Red Hands – 2-Player Game Jan 29, 2021 $1.99N/A (N/A)0 .. 20,0000%00:00 (00:00)PeakselPeaksel
435 Utawarerumono: Prelude to the Fallen Jan 22, 2021 $23.99N/A (N/A)20,000 .. 50,0000%00:00 (00:00)AQUAPLUSDMM GAMES, Shiravune
436 Gemini Strategy Origin Jan 13, 2021 $1.99N/A (N/A)20,000 .. 50,0000%00:00 (00:00)Gemini Stars GamesHappy Max
437 Kingdom Heroes 8 Jan 12, 2021 $29.99N/A (N/A)500,000 .. 1,000,0000%00:00 (00:00)USERJOY Technology Co.,Ltd.USERJOY Technology Co.,Ltd.
438 Shards of Feyra Jan 10, 2021 $0.99N/A (N/A)20,000 .. 50,0000%00:00 (00:00)Feyra OnlineFeyra Online
439 Hero by Chance Jan 8, 2021 $1.99N/A (N/A)50,000 .. 100,0000%00:00 (00:00)Reborn EntertainmentReborn Entertainment
440 列传:革新战争 Jan 7, 2021 $16.99N/A (N/A)20,000 .. 50,0000%00:00 (00:00)Ash Game StudioAsh Game Studio, DreamStep
441 Two Die Jan 6, 2021 $4.99N/A (N/A)0 .. 20,0000%00:00 (00:00)Jon Lamont, Jon BraunJon Lamont, Jon Braun
442 ZombieWave-UnlimitedChallenges Dec 20, 2020 $1.99N/A (N/A)100,000 .. 200,0000%00:00 (00:00)AlloyStoveAlloyStove
443 Sink Again Dec 17, 2020 N/AN/A (N/A)20,000 .. 50,0000%00:00 (00:00)FlatcoonFlatcoon
444 Unsung Story Dec 17, 2020 $29.99N/A (N/A)0 .. 20,0000%00:00 (00:00)Little OrbitLittle Orbit
445 Terra Randoma Dec 17, 2020 $14.99N/A (N/A)0 .. 20,0000%00:00 (00:00)Deniz K.Deniz K.
446 Arcanium: Rise of Akhan Dec 8, 2020 $19.99N/A (N/A)0 .. 20,0000%00:00 (00:00)Supercombo, Inc.Rogue Games, Inc.
447 Guildmaster: Gratuitous Subtitle Dec 7, 2020 $6.99N/A (N/A)0 .. 20,0000%00:00 (00:00)Jim Makes GamesJim Makes Games
448 Ruinverse Dec 3, 2020 $14.99N/A (N/A)0 .. 20,0000%00:00 (00:00)Exe Create Inc.KEMCO
449 Mini War - Three Kingdoms Nov 30, 2020 $0.99N/A (N/A)0 .. 20,0000%00:00 (00:00)YangZeyuYangZeyu
450 Prime & Load : 1776 Apr 25, 2020 $7.99N/A (N/A)20,000 .. 50,0000%00:00 (00:00)Radio Silence EntertainmentRadio Silence Entertainment
451 Eterna: Heroes Fall Nov 19, 2020 $16.99N/A (N/A)0 .. 20,0000%00:00 (00:00)Zu DigitalZu Digital
452 Eldrador Creatures Nov 19, 2020 $9.99N/A (N/A)0 .. 20,0000%00:00 (00:00)Independent Arts Software GmbHWild River Games
453 Myth Bearer Nov 10, 2020 $2.99N/A (N/A)20,000 .. 50,0000%00:00 (00:00)JC BaileyJC Bailey
454 Raiders! Forsaken Earth Nov 10, 2020 $19.99N/A (N/A)50,000 .. 100,0000%00:00 (00:00)Creative Storm EntertainmentCreativeForge Games
455 Fantasy Grounds Unity Nov 5, 2020 $39.99N/A (N/A)50,000 .. 100,0000%00:00 (00:00)SmiteWorks USA, LLCSmiteWorks USA, LLC
456 Crystal Ortha Nov 5, 2020 $14.99N/A (N/A)20,000 .. 50,0000%00:00 (00:00)Hit-Point Co.,Ltd.KEMCO
457 Battle Hunters Nov 4, 2020 $14.99N/A (N/A)0 .. 20,0000%00:00 (00:00)Phase Two Games Pty. Ltd.Phase Two Games Pty. Ltd.
458 Kingdom Of Force Nov 1, 2020 $6.99N/A (N/A)0 .. 20,0000%00:00 (00:00)Beijing Hydra Technology Co., Ltd.Beijing Hydra Technology Co., Ltd.
459 REALITY Oct 30, 2020 $1.99N/A (N/A)0 .. 20,0000%00:00 (00:00)LunaRolexLerLunaRolexLer
460 October Night Games Oct 29, 2020 $15.99N/A (N/A)20,000 .. 50,0000%00:00 (00:00)Octobear Knight GamesWhisperGames
461 Frag Oct 29, 2020 $5.99N/A (N/A)0 .. 20,0000%00:00 (00:00)ZuleZule
462 Dread Nautical Oct 27, 2020 $19.99N/A (N/A)0 .. 20,0000%00:00 (00:00)Zen StudiosZen Studios
463 Arcante Oct 27, 2020 $5.99N/A (N/A)0 .. 20,0000%00:00 (00:00)Luca FavanoLuca Favano
464 Clouds of Rain Oct 23, 2020 $9.99N/A (N/A)20,000 .. 50,0000%00:00 (00:00)Graphic Line GamesGraphic Line Games
465 The Dungeon Beneath Oct 23, 2020 $14.99N/A (N/A)20,000 .. 50,0000%00:00 (00:00)Puzzle Box GamesPuzzle Box Games
466 AbsentedAge: Squarebound Oct 23, 2020 $12.99N/A (N/A)50,000 .. 100,0000%00:00 (00:00)terunon's Labterunon's Lab
467 Mystic Hammer Oct 23, 2020 $4.99N/A (N/A)0 .. 20,0000%00:00 (00:00)PozziSoftPozziSoft
468 TRANSFORMERS: BATTLEGROUNDS Oct 22, 2020 $24.99N/A (N/A)0 .. 20,0000%00:00 (00:00)CoatsinkOutright Games Ltd.
469 Tenderfoot Tactics Oct 21, 2020 $14.99N/A (N/A)0 .. 20,0000%00:00 (00:00)Badru, Michael Bell, Isa Hutchinson, Taylor Thomas, Zoe Vartanian, Madison PatheIce Water Games
470 This Is Not Chess Oct 20, 2020 $7.99N/A (N/A)20,000 .. 50,0000%00:00 (00:00)Courtney DawsonCourtney Dawson
471 Kingdom Rush Vengeance - Tower Defense Oct 15, 2020 $19.99N/A (N/A)500,000 .. 1,000,0000%00:00 (00:00)Ironhide Game StudioIronhide Game Studio
472 Partisans 1941 Oct 14, 2020 $5.99N/A (N/A)500,000 .. 1,000,0000%00:00 (00:00)Alter GamesDaedalic Entertainment
473 Dragon Lapis Oct 1, 2020 $14.99N/A (N/A)0 .. 20,0000%00:00 (00:00)Exe Create Inc.KEMCO
474 蜀山幻剑录 Sword of Shushan Sep 24, 2020 $9.99N/A (N/A)0 .. 20,0000%00:00 (00:00)星罗云布工作室星罗云布工作室
475 Spacer: Legacies Sep 23, 2020 $18.99N/A (N/A)20,000 .. 50,0000%00:00 (00:00)Brazen LegionsBrazen Legions
476 Infectra Sep 22, 2020 $0.49N/A (N/A)0 .. 20,0000%00:00 (00:00)Boar-in-gamesOrdinary Pine Studio
477 A Gay Love Story About Gay Love Sep 14, 2020 $0.49N/A (N/A)20,000 .. 50,0000%00:00 (00:00)Sigyaad TeamSigyaad Team
478 Disgaea 4 Complete+ Sep 10, 2020 $39.99N/A (N/A)50,000 .. 100,0000%00:00 (00:00)Nippon Ichi Software, Inc.NIS America, Inc.
479 Necromunda: Underhive Wars Sep 7, 2020 $2.99N/A (N/A)100,000 .. 200,0000%00:00 (00:00)Rogue FactorFocus Entertainment
480 Final Hope: The Plot Sep 3, 2020 $5.99N/A (N/A)0 .. 20,0000%00:00 (00:00)Djamp GamesDjamp Games
481 Lost Patrol Jun 1, 1991 $5.99N/A (N/A)100,000 .. 200,0000%00:00 (00:00)Shadow DevelopmentPixel Games UK
482 Time Break Chronicles Sep 1, 2020 $14.99N/A (N/A)50,000 .. 100,0000%00:00 (00:00)Warrior General Games, LLCWarrior General Games, LLC
483 Hell Pub Sep 1, 2020 $1.99N/A (N/A)0 .. 20,0000%00:00 (00:00)BJ StudioBJ Studio
484 Liege Dragon Aug 30, 2020 $14.99N/A (N/A)100,000 .. 200,0000%00:00 (00:00)Exe Create Inc.KEMCO
485 经天纪 Aug 23, 2020 $1.99N/A (N/A)20,000 .. 50,0000%00:00 (00:00)神经虾工作组欢乐不二
486 Battle Sweeper Aug 13, 2020 $4.99N/A (N/A)0 .. 20,0000%00:00 (00:00)AlpaSun GamesAlpaSun Games
487 For the People Aug 13, 2020 $16.99N/A (N/A)50,000 .. 100,0000%00:00 (00:00)Brezg Studio101XP
488 Warriors of the Nile Aug 7, 2020 $6.49N/A (N/A)200,000 .. 500,0000%00:00 (00:00)Stove StudioGamera Games
489 Canon - Legend of the New Gods Aug 7, 2020 $11.99N/A (N/A)0 .. 20,0000%00:00 (00:00)Super Fighter TeamPiko Interactive, Bleem!
490 Aye Aye, Captain Aug 4, 2020 $2.99N/A (N/A)0 .. 20,0000%00:00 (00:00)North State GamesNorth State Games
491 Westminster Darkly Aug 1, 2020 $3.99N/A (N/A)0 .. 20,0000%00:00 (00:00)9432469 Canada Inc.9432469 Canada Inc.
492 Fae Tactics Jul 31, 2020 $19.99N/A (N/A)100,000 .. 200,0000%00:00 (00:00)Endlessfluff GamesHumble Games
493 Chicken Bomb Jul 29, 2020 $0.99N/A (N/A)0 .. 20,0000%00:00 (00:00)GoesSoftGoesSoft
494 100-Level Dungeon Jul 23, 2020 $1.99N/A (N/A)50,000 .. 100,0000%00:00 (00:00)Jonathan.SJonathan.S
495 Stellaren II Jul 5, 2020 $3.99N/A (N/A)0 .. 20,0000%00:00 (00:00)nineduxninedux
496 大千世界 Jul 17, 2020 $3.99N/A (N/A)200,000 .. 500,0000%00:00 (00:00)滑稽工作室滑稽工作室
497 最后的大法师 光明之旅(Last Archmage Journey of Light) Jul 16, 2020 $6.99N/A (N/A)20,000 .. 50,0000%00:00 (00:00)Flying Star GamesFlying Star Games
498 AVRACH RESURRECTION Jul 15, 2020 $5.99N/A (N/A)50,000 .. 100,0000%00:00 (00:00)Fluffy BisonsFluffy Bisons
499 Dark Bestiary Jul 12, 2020 $8.99N/A (N/A)20,000 .. 50,0000%00:00 (00:00)QdQd
500 ARIA CHRONICLE Jul 12, 2020 $17.99N/A (N/A)100,000 .. 200,0000%00:00 (00:00)STUDIO N9HIKE Inc.
501 Little Town Hero Jul 9, 2020 $24.99N/A (N/A)0 .. 20,0000%00:00 (00:00)GAME FREAK inc.GAME FREAK inc.
502 Apprentice Arriving Jul 7, 2020 $15.99N/A (N/A)100,000 .. 200,0000%00:00 (00:00)Jewel Seeker EntertainmentJewel Seeker Entertainment
503 Droid Guier Jun 30, 2020 $0.99N/A (N/A)0 .. 20,0000%00:00 (00:00)Caztellary StudioCaztellary Studio
504 DungeonTop Jun 21, 2020 $15.99N/A (N/A)20,000 .. 50,0000%00:00 (00:00)One Up Plus EntertainmentOne Up Plus Entertainment
505 WARBORN Jun 12, 2020 $24.99N/A (N/A)0 .. 20,0000%00:00 (00:00)Raredrop Games LtdPQube
506 The Dungeon Paradox Jun 2, 2020 $16.99N/A (N/A)0 .. 20,0000%00:00 (00:00)Digital SoftwareDigital Software
507 Tales Of Glory May 30, 2020 $29.99N/A (N/A)20,000 .. 50,0000%00:00 (00:00)BlackTale GamesBlackTale Games
508 Rugby League Team Manager 3 May 28, 2020 $39.99N/A (N/A)0 .. 20,0000%00:00 (00:00)Alternative Software LtdAlternative Software Ltd
509 Strategic Mind: Blitzkrieg May 22, 2020 $15.99N/A (N/A)20,000 .. 50,0000%00:00 (00:00)Starni GamesUntold Tales, Hyperstrange
510 Cyber Ops May 21, 2020 $2.99N/A (N/A)20,000 .. 50,0000%00:00 (00:00)Octeto StudiosGames Operators
511 Moonfall May 20, 2020 $4.99N/A (N/A)0 .. 20,0000%00:00 (00:00)Zak AmanaZak Amana
512 Boston AInamics May 18, 2020 $199.99N/A (N/A)0 .. 20,0000%00:00 (00:00)HedeHede
513 Rise of the Foederati May 4, 2020 $8.9N/A (N/A)20,000 .. 50,0000%00:00 (00:00)Genos StudiosGenos Studios
514 Familia May 1, 2020 FreeN/A (N/A)100,000 .. 200,0000%00:00 (00:00)Maui Game Studio, Code MoraMaui Interactive, LLC
515 Koi Unleashed Apr 29, 2020 $15.99N/A (N/A)0 .. 20,0000%00:00 (00:00)Wild GripWild Grip
516 TROUBLESHOOTER: Abandoned Children Apr 23, 2020 $24.99N/A (N/A)200,000 .. 500,0000%00:00 (00:00)DandylionDandylion
517 XCOM: Chimera Squad Apr 23, 2020 $2.99N/A (N/A)500,000 .. 1,000,0000%00:00 (00:00)Firaxis Games2K
518 Warhammer Underworlds - Shadespire Edition Apr 21, 2020 $11.99N/A (N/A)50,000 .. 100,0000%00:00 (00:00)Steel Sky ProductionsSteel Sky Productions
519 Survival Africa Apr 17, 2020 $16.99N/A (N/A)0 .. 20,0000%00:00 (00:00)MeanDeanIconic Studio
520 Fates of Ort Mar 31, 2020 $5.09N/A (N/A)0 .. 20,0000%00:00 (00:00)8BitSkull8BitSkull
521 Treachery in Beatdown City Mar 30, 2020 $19.99N/A (N/A)50,000 .. 100,0000%00:00 (00:00)NuChallenger, HurakanWorksNuChallenger
522 Lovehammer 400 000: The Buttlerian Crusade Mar 27, 2020 $9.99N/A (N/A)0 .. 20,0000%00:00 (00:00)Nerd Commando Game StudiosNerd Commando Game Studios
523 Grand Guilds Mar 26, 2020 $14.99N/A (N/A)20,000 .. 50,0000%00:00 (00:00)Drix StudiosDrix Studios
524 Bonfire Mar 26, 2020 $17.99N/A (N/A)0 .. 20,0000%00:00 (00:00)MoaCubeMoaCube
525 Iron Danger Mar 25, 2020 $1.99N/A (N/A)100,000 .. 200,0000%00:00 (00:00)Action Squad StudiosDaedalic Entertainment
526 Langrisser I & II Mar 10, 2020 $49.99N/A (N/A)50,000 .. 100,0000%00:00 (00:00)Chara-ani CorporationNIS America, Inc.
527 Horizon's Gate Mar 9, 2020 $19.99N/A (N/A)0 .. 20,0000%00:00 (00:00)Rad CodexRad Codex
528 Frontline: Panzer Blitzkrieg! Mar 6, 2020 $9.99N/A (N/A)0 .. 20,0000%00:00 (00:00)Frontline: Games SeriesFrontline: Games Series
529 Mainframe Defenders Feb 25, 2020 $5.99N/A (N/A)100,000 .. 200,0000%00:00 (00:00)Synthetic DomainSynthetic Domain
530 Wasteland Remastered Feb 25, 2020 $1.49N/A (N/A)20,000 .. 50,0000%00:00 (00:00)inXile Entertainment, Krome StudiosinXile Entertainment
531 RaidTitans Feb 6, 2020 $8.99N/A (N/A)0 .. 20,0000%00:00 (00:00)RainbowStudioRainbowStudio
532 Mortal Glory Jan 29, 2020 $7.99N/A (N/A)100,000 .. 200,0000%00:00 (00:00)Redbeak GamesRedbeak Games
533 浮世万千之前世今生 Jan 28, 2020 $5.49N/A (N/A)50,000 .. 100,0000%00:00 (00:00)飞天大胖喵飞天大胖喵
534 Der Geisterturm / The Ghost Tower Jan 23, 2020 $8.99N/A (N/A)0 .. 20,0000%00:00 (00:00)Graverobber FoundationGraverobber Foundation
535 Utawarerumono: Mask of Truth Jan 23, 2020 $15.99N/A (N/A)20,000 .. 50,0000%00:00 (00:00)AQUAPLUSDMM GAMES, Shiravune
536 Utawarerumono: Mask of Deception Jan 23, 2020 $15.99N/A (N/A)50,000 .. 100,0000%00:00 (00:00)AQUAPLUSDMM GAMES, Shiravune
537 Graywalkers: Purgatory Jan 15, 2020 $24.99N/A (N/A)0 .. 20,0000%00:00 (00:00)Dreamlords Digital Inc.Dreamlords Digital Inc.
538 Vestaria Saga I: War of the Scions Dec 27, 2019 $19.99N/A (N/A)20,000 .. 50,0000%00:00 (00:00)Vestaria ProjectDANGEN Entertainment, Gamera Games
539 Dinodrifters Dec 20, 2019 $9.99N/A (N/A)0 .. 20,0000%00:00 (00:00)Jane WilsonTrywelyn Productions
540 Steam Marines 2 Nov 20, 2019 $24.99N/A (N/A)0 .. 20,0000%00:00 (00:00)Worthless BumsWorthless Bums
541 Time For Quest Nov 14, 2019 $7.99N/A (N/A)0 .. 20,0000%00:00 (00:00)Blacer Studio, Nikodem SwiderSource Byte Sp. z o.o., Blacer Studio
542 Albedon Wars Nov 7, 2019 $24.99N/A (N/A)0 .. 20,0000%00:00 (00:00)Firemill GamesFiremill Games
543 Time of the Moon Nov 1, 2019 $9.99N/A (N/A)0 .. 20,0000%00:00 (00:00)DawnfoxDawnfox
544 Strategic Mind: The Pacific Oct 25, 2019 $11.99N/A (N/A)20,000 .. 50,0000%00:00 (00:00)Starni GamesUntold Tales, Hyperstrange
545 Lakeview Valley Oct 22, 2019 $14.99N/A (N/A)50,000 .. 100,0000%00:00 (00:00)Roope TamminenRoope Tamminen
546 Spaceland: Sci-Fi Indie Tactics Sep 30, 2019 $19.99N/A (N/A)50,000 .. 100,0000%00:00 (00:00)Tortuga TeamTortuga Team
547 Balance Breakers - A Battle Party Game Sep 27, 2019 $16.99N/A (N/A)0 .. 20,0000%00:00 (00:00)Gamestry LabGamestry Lab
548 The Qaedon Wars - The Story Begins Sep 12, 2019 $4.99N/A (N/A)0 .. 20,0000%00:00 (00:00)Ian C PookPaphian Games
549 First Day Sep 1, 2019 FreeN/A (N/A)50,000 .. 100,0000%00:00 (00:00)BadWolf GamesBadWolf Games
550 巅峰骑士团 Aug 15, 2019 $5.99N/A (N/A)100,000 .. 200,0000%00:00 (00:00)熊窝dodox熊窝dodox, RuiXiao
551 Knights of the Chalice Aug 10, 2009 $19.99N/A (N/A)0 .. 20,0000%00:00 (00:00)Heroic Fantasy Games Dot ComHeroic Fantasy Games Dot Com
552 RogueVerse Aug 22, 2019 $9.99N/A (N/A)0 .. 20,0000%00:00 (00:00)FoumartGamesFoumartGames
553 Dungeon Scavenger Aug 21, 2019 $7.99N/A (N/A)0 .. 20,0000%00:00 (00:00)Vidama Software LLCVidama Software LLC
554 Tactics V: "Obsidian Brigade" Aug 8, 2019 $9.99N/A (N/A)0 .. 20,0000%00:00 (00:00)From Nothing Game StudiosFrom Nothing Game Studios
555 Dead Hand Jul 26, 2019 $19.99N/A (N/A)0 .. 20,0000%00:00 (00:00)One Man Army GamesOne Man Army Games
556 To Battle!: Hell's Crusade Jul 24, 2019 $8.99N/A (N/A)0 .. 20,0000%00:00 (00:00)Filthy Peasant GamesFilthy Peasant Games
557 英雄群侠传II Jul 15, 2019 $11.99N/A (N/A)100,000 .. 200,0000%00:00 (00:00)熊窝dodox熊窝dodox, RuiXiao
558 It Stares Back Jun 25, 2019 $9.99N/A (N/A)0 .. 20,0000%00:00 (00:00)Light Arc Studio LtdLight Arc Studio Ltd
559 Golden Fall Jun 14, 2019 $0.55N/A (N/A)20,000 .. 50,0000%00:00 (00:00)Ofer RubinsteinOfer Rubinstein
560 GOD WARS The Complete Legend Jun 13, 2019 $29.99N/A (N/A)20,000 .. 50,0000%00:00 (00:00)DRAGAMI GAMES, LTD.DRAGAMI GAMES, LTD.
561 Age of Fear: The Undead King GOLD Jun 11, 2019 $14.99N/A (N/A)0 .. 20,0000%00:00 (00:00)Leslaw SliwkoAge of Fear
562 Cardlings Jun 5, 2019 $4.99N/A (N/A)0 .. 20,0000%00:00 (00:00)Clockwork ChilliClockwork Chilli
563 Glorious Companions Jun 4, 2019 $19.99N/A (N/A)20,000 .. 50,0000%00:00 (00:00)Ancient ForgeAncient Forge
564 Banner of the Maid May 27, 2019 $16.99N/A (N/A)200,000 .. 500,0000%00:00 (00:00)Azure Flame StudioCE-Asia
565 Idle Portal Guardian May 21, 2019 $2.99N/A (N/A)0 .. 20,0000%00:00 (00:00)ThejamiryuThejamiryu Inc.
566 Light Fairytale Episode 1 May 13, 2019 $9.99N/A (N/A)50,000 .. 100,0000%00:00 (00:00)neko.worksneko.works
567 Legend of Cina Mar 29, 2019 FreeN/A (N/A)0 .. 20,0000%00:00 (00:00)YunkaiYunkai
568 Monads Feb 15, 2019 $9.99N/A (N/A)0 .. 20,0000%00:00 (00:00)Team MonadTeam Monad
569 Element Space Feb 14, 2019 $14.99N/A (N/A)20,000 .. 50,0000%00:00 (00:00)Sixth VowelInca Games
570 Euclidean Skies Feb 5, 2019 $4.99N/A (N/A)0 .. 20,0000%00:00 (00:00)Miro StrakaMiro Straka
571 Dragon Iris Feb 1, 2019 $1.99N/A (N/A)0 .. 20,0000%00:00 (00:00)Leonardo M A SilvaConsttelattions
572 Nomads of the Fallen Star Jan 30, 2019 $12.99N/A (N/A)20,000 .. 50,0000%00:00 (00:00)Huy PhanHuy Phan
573 Shieldwall Chronicles: Swords of the North Dec 16, 2018 $14.99N/A (N/A)20,000 .. 50,0000%00:00 (00:00)Wave Light Games Inc.Wave Light Games Inc.
574 Ancient Frontier: Steel Shadows Dec 11, 2018 $2.99N/A (N/A)0 .. 20,0000%00:00 (00:00)Fair Weather Studios, LLCFair Weather Studios, LLC
575 Das Geisterschiff / The Ghost Ship Sep 19, 2018 $9.99N/A (N/A)0 .. 20,0000%00:00 (00:00)Graverobber FoundationGraverobber Foundation
576 Disgaea 5 Complete Oct 22, 2018 $39.99N/A (N/A)200,000 .. 500,0000%00:00 (00:00)Nippon Ichi Software, Inc.NIS America, Inc.
577 Vigilantes Oct 3, 2018 $14.99N/A (N/A)20,000 .. 50,0000%00:00 (00:00)Timeslip SoftworksTimeslip Softworks
578 Depth of Extinction Sep 27, 2018 $14.99N/A (N/A)50,000 .. 100,0000%00:00 (00:00)HOF StudiosHOF Studios
579 Squids Odyssey Sep 5, 2018 $14.99N/A (N/A)0 .. 20,0000%00:00 (00:00)The Game BakersThe Game Bakers
580 SFD : Rogue TRPG Aug 17, 2018 $7.99N/A (N/A)0 .. 20,0000%00:00 (00:00)icefillicefill
581 Dustwind Aug 15, 2018 $24.99N/A (N/A)20,000 .. 50,0000%00:00 (00:00)Dustwind StudiosZ-Software GmbH, Dustwind Studios
582 Sword Legacy: Omen Aug 13, 2018 $17.99N/A (N/A)50,000 .. 100,0000%00:00 (00:00)Firecast Studio, FablewareFirecast Studio
583 Elven Magic: The Witch, The Elf & The Fairy Aug 11, 2018 $18N/A (N/A)50,000 .. 100,0000%00:00 (00:00)Daniel ChayDaniel Chay
584 Star Traders: Frontiers Jul 31, 2018 $14.99N/A (N/A)200,000 .. 500,0000%00:00 (00:00)Trese BrothersTrese Brothers
585 Throw Anything Jul 26, 2018 $16.99N/A (N/A)0 .. 20,0000%00:00 (00:00)Visual LightVisual Light
586 Ganbare! Super Strikers Jul 26, 2018 $9.99N/A (N/A)20,000 .. 50,0000%00:00 (00:00)reserese
587 The Chronicles of Quiver Dick Jul 9, 2018 $1.49N/A (N/A)20,000 .. 50,0000%00:00 (00:00)Crankage GamesCrankage Games
588 Lost Legend-Legacy Jul 2, 2018 $2.99N/A (N/A)50,000 .. 100,0000%00:00 (00:00)Unhinged LLCUnhinged LLC
589 Anima: Gate of Memories - The Nameless Chronicles Jun 19, 2018 $19.99N/A (N/A)0 .. 20,0000%00:00 (00:00)Anima ProjectAnima Publishing
590 qop 3 Jun 7, 2018 $1.99N/A (N/A)20,000 .. 50,0000%00:00 (00:00)Quiet RiverQuiet River
591 In memory of TITAN Jun 2, 2018 $14.99N/A (N/A)0 .. 20,0000%00:00 (00:00)Valhalla Universe, Inc.XR Studio LLC
592 Spaceship Commander May 23, 2018 $9.99N/A (N/A)0 .. 20,0000%00:00 (00:00)Sokolov Yaroslav VladimirovichSokolov Yaroslav Vladimirovich
593 Bastard May 14, 2018 $8.99N/A (N/A)50,000 .. 100,0000%00:00 (00:00)Aterdux EntertainmentAterdux Entertainment
594 Demon's Rise - War for the Deep Apr 29, 2018 $6.99N/A (N/A)20,000 .. 50,0000%00:00 (00:00)Wave Light Games Inc.Wave Light Games Inc.
595 Magic Scroll Tactics / マジックスクロールタクティクス / 魔法卷轴 / 魔法捲軸 Apr 27, 2018 $5.99N/A (N/A)20,000 .. 50,0000%00:00 (00:00)オートリ電子オートリ電子, Gamera Games
596 Demon's Rise - Lords of Chaos Apr 24, 2018 $6.99N/A (N/A)20,000 .. 50,0000%00:00 (00:00)Wave Light Games Inc.Wave Light Games Inc.
597 Tactics & Strategy Master:Joan of Arc Mar 28, 2018 $1.49N/A (N/A)20,000 .. 50,0000%00:00 (00:00)Gemini Stars GamesGemini Stars Games
598 Aplestia Feb 19, 2018 $3.99N/A (N/A)0 .. 20,0000%00:00 (00:00)Orfeas Game StudioOrfeas Game Studio
599 Necromancer Returns Feb 1, 2018 $9.99N/A (N/A)0 .. 20,0000%00:00 (00:00)Greenolor StudioKaser Studio
600 Sky Is Arrows Jan 8, 2018 FreeN/A (N/A)0 .. 20,0000%00:00 (00:00)2,000 Damage2,000 Damage
601 Army of Tentacles: (Not) A Cthulhu Dating Sim: Black GOAT of the Woods Edition Jan 4, 2018 $10.99N/A (N/A)0 .. 20,0000%00:00 (00:00)Stegalosaurus Game DevelopmentStegalosaurus Game Development
602 Strike Team Hydra Dec 8, 2017 $6.99N/A (N/A)0 .. 20,0000%00:00 (00:00)Wave Light Games Inc.Wave Light Games Inc.
603 Willy-Nilly Knight Nov 10, 2017 $14.99N/A (N/A)20,000 .. 50,0000%00:00 (00:00)Double Dice GamesDouble Dice Games
604 Reprogram Nov 9, 2017 $9.99N/A (N/A)0 .. 20,0000%00:00 (00:00)KompilerKompiler
605 The Balcony Nov 3, 2017 FreeN/A (N/A)0 .. 20,0000%00:00 (00:00)HolotnaHolotna
606 Lost Dimension Oct 30, 2017 $24.99N/A (N/A)20,000 .. 50,0000%00:00 (00:00)FURYU CorporationGhostlight LTD
607 Bionic Battle Mutants Oct 24, 2017 $4.99N/A (N/A)0 .. 20,0000%00:00 (00:00)MonkeyneticsMonkeynetics
608 Warbanners Oct 18, 2017 $19.99N/A (N/A)50,000 .. 100,0000%00:00 (00:00)Crasleen GamesCrasleen Games
609 Beastmancer Oct 5, 2017 $9.99N/A (N/A)0 .. 20,0000%00:00 (00:00)AutarcaAutarca
610 Ancient Frontier Sep 21, 2017 $24.99N/A (N/A)0 .. 20,0000%00:00 (00:00)Fair Weather Studios, LLCFair Weather Studios, LLC
611 Legion Tale Sep 20, 2017 $4.99N/A (N/A)50,000 .. 100,0000%00:00 (00:00)Maulidan GamesMaulidan Games
612 Swords and Sandals Medieval Sep 14, 2017 $6.99N/A (N/A)20,000 .. 50,0000%00:00 (00:00)Whiskeybarrel StudioseGames.com
613 Garden Tale Sep 13, 2017 $9.99N/A (N/A)20,000 .. 50,0000%00:00 (00:00)Bonion GamesPLAYISM
614 Steam Tactics Sep 12, 2017 $4.99N/A (N/A)100,000 .. 200,0000%00:00 (00:00)Igor RashkuevIgor Rashkuev
615 Age of Fear 3: The Legend Sep 1, 2017 $14.99N/A (N/A)0 .. 20,0000%00:00 (00:00)Leslaw SliwkoAge of Fear
616 Sangokushi Eiketsuden Aug 29, 2017 $12.99N/A (N/A)0 .. 20,0000%00:00 (00:00)KOEI TECMO GAMES CO., LTD.KOEI TECMO GAMES CO., LTD.
617 Weaves of Fate Aug 3, 2017 $6.99N/A (N/A)20,000 .. 50,0000%00:00 (00:00)Tom KingstonTom Kingston
618 Metal as Phuk Jul 13, 2017 $2.49N/A (N/A)0 .. 20,0000%00:00 (00:00)Crankage GamesCrankage Games
619 Brigand: Oaxaca Jul 11, 2017 $5.35N/A (N/A)50,000 .. 100,0000%00:00 (00:00)Brian Lancaster, Laughing Coyote SoftwareBrian Lancaster, Laughing Coyote Software
620 Swords and Sandals 2 Redux Jun 29, 2017 $9.99N/A (N/A)50,000 .. 100,0000%00:00 (00:00)Whiskeybarrel StudioseGames.com
621 Alvora Tactics Jun 1, 2017 $9.99N/A (N/A)20,000 .. 50,0000%00:00 (00:00)Rad CodexRad Codex
622 Three Days May 19, 2017 $0.99N/A (N/A)100,000 .. 200,0000%00:00 (00:00)Lewis Bergin, GorePixelGamesLewis Bergin
623 NEXT JUMP: Shmup Tactics Apr 28, 2017 $1.99N/A (N/A)50,000 .. 100,0000%00:00 (00:00)Post Mortem PixelsGrabTheGames
624 Tokyo Twilight Ghost Hunters Daybreak: Special Gigs Mar 17, 2017 $9.99N/A (N/A)50,000 .. 100,0000%00:00 (00:00)Arc System Works, TOYBOX Inc.PQube
625 Pixel Privateers Feb 21, 2017 $14.99N/A (N/A)50,000 .. 100,0000%00:00 (00:00)Quadro DeltaRe-Logic
626 Wacky Spores: The Chase Feb 10, 2017 $8.99N/A (N/A)0 .. 20,0000%00:00 (00:00)Lorenzo BellincampiLorenzo Bellincampi
627 Hellenica Jan 23, 2017 $9.99N/A (N/A)0 .. 20,0000%00:00 (00:00)The DragonloftThe Dragonloft
628 Alien Shooter TD Jan 13, 2017 $9.99N/A (N/A)100,000 .. 200,0000%00:00 (00:00)Sigma Team Inc.Sigma Team Inc.
629 Low Magic Age Jan 10, 2017 $5.99N/A (N/A)200,000 .. 500,0000%00:00 (00:00)Low Magic StudiosLow Magic Studios
630 Advanced Gaming Platform::Epica Dec 22, 2016 $19.99N/A (N/A)0 .. 20,0000%00:00 (00:00)AGP::StudiosAGP::Studios
631 Moekuri: Adorable + Tactical SRPG Dec 16, 2016 $11.99N/A (N/A)0 .. 20,0000%00:00 (00:00)MokyuSoftCulture Select
632 Castle Battles Dec 16, 2016 $9.99N/A (N/A)0 .. 20,0000%00:00 (00:00)Light Arc Studio LtdLight Arc Studio Ltd
633 Gladiator Trainer Nov 25, 2016 $1.99N/A (N/A)200,000 .. 500,0000%00:00 (00:00)Pilgrim AdventuresSenpai Studios
634 Disgraced Jun 20, 2016 $9.99N/A (N/A)50,000 .. 100,0000%00:00 (00:00)Corrosive Studios LLCCorrosive Studios LLC
635 Age of Fear: The Undead King Nov 15, 2016 $4.99N/A (N/A)20,000 .. 50,0000%00:00 (00:00)Leslaw SliwkoAge of Fear
636 Dungeon Rats Nov 4, 2016 $7.99N/A (N/A)50,000 .. 100,0000%00:00 (00:00)Iron Tower StudioIron Tower Studio
637 Farabel Oct 14, 2016 $1.49N/A (N/A)50,000 .. 100,0000%00:00 (00:00)FrogamesFrogames, Goblinz Digital, indienova
638 Stellar Tactics Sep 22, 2016 $19.99N/A (N/A)100,000 .. 200,0000%00:00 (00:00)Maverick GamesMaverick Games
639 Sorcerer King: Rivals Sep 22, 2016 $19.99N/A (N/A)100,000 .. 200,0000%00:00 (00:00)Stardock EntertainmentStardock Entertainment
640 Wooden House Sep 5, 2016 $0.49N/A (N/A)20,000 .. 50,0000%00:00 (00:00)GDNomaDGDNomaD
641 The Storm Guard: Darkness is Coming Aug 25, 2016 $19.99N/A (N/A)0 .. 20,0000%00:00 (00:00)Bitmen StudiosBitmen Studios
642 Mugen Souls Z Aug 25, 2016 $19.99N/A (N/A)0 .. 20,0000%00:00 (00:00)Idea FactoryGhostlight LTD
643 Phantom Brave PC Jul 25, 2016 $19.99N/A (N/A)50,000 .. 100,0000%00:00 (00:00)Nippon Ichi Software, Inc.NIS America, Inc.
644 Frost Jul 5, 2016 $6.99N/A (N/A)0 .. 20,0000%00:00 (00:00)Jérôme BodinLe Studio des Ténèbres
645 Bastard Bonds Apr 29, 2016 $10.99N/A (N/A)20,000 .. 50,0000%00:00 (00:00)BigfingersBigfingers
646 Flesh Eaters May 3, 2016 $3.34N/A (N/A)200,000 .. 500,0000%00:00 (00:00)S.C. 16 BIT NIGHTS S.R.L.S.C. 16 BIT NIGHTS S.R.L.
647 Hyperdevotion Noire: Goddess Black Heart (Neptunia) Apr 26, 2016 $4.49N/A (N/A)100,000 .. 200,0000%00:00 (00:00)Idea Factory, Compile Heart, StingIdea Factory International
648 Worlds of Chaos: Invasion Feb 10, 2016 $14.99N/A (N/A)0 .. 20,0000%00:00 (00:00)TactichaosTactichaos
649 Into the Void Dec 4, 2015 $1.99N/A (N/A)20,000 .. 50,0000%00:00 (00:00)Mozg LabsMozg Labs
650 Throbax TD Nov 5, 2015 FreeN/A (N/A)0 .. 20,0000%00:00 (00:00)Unterrainer Informatik OGUnterrainer Informatik OG
651 Voidspire Tactics Nov 2, 2015 $14.99N/A (N/A)20,000 .. 50,0000%00:00 (00:00)Rad CodexRad Codex
652 Mugen Souls Oct 22, 2015 $19.99N/A (N/A)50,000 .. 100,0000%00:00 (00:00)Idea FactoryGhostlight LTD
653 Fairspace Oct 21, 2015 $0.89N/A (N/A)0 .. 20,0000%00:00 (00:00)Sub Orbital SoftwareSub Orbital Software
654 Reverse Crawl Sep 24, 2015 $5.99N/A (N/A)50,000 .. 100,0000%00:00 (00:00)Nerdook ProductionsDigerati
655 Templar Battleforce Sep 21, 2015 $9.99N/A (N/A)200,000 .. 500,0000%00:00 (00:00)Trese BrothersTrese Brothers
656 Braveland Pirate Sep 15, 2015 $14.99N/A (N/A)50,000 .. 100,0000%00:00 (00:00)Tortuga TeamTortuga Team
657 Renowned Explorers: International Society Sep 2, 2015 $19.99N/A (N/A)200,000 .. 500,0000%00:00 (00:00)Abbey GamesAbbey Games
658 Fallen: A2P Protocol Aug 14, 2015 $9.99N/A (N/A)50,000 .. 100,0000%00:00 (00:00)Red KatanaRed Katana
659 Breach & Clear: Deadline Rebirth (2016) Jul 20, 2015 $9.99N/A (N/A)100,000 .. 200,0000%00:00 (00:00)Mighty Rabbit Studios, Gun MediaGood Shepherd Entertainment, Devolver Digital
660 Centauri Sector Jun 24, 2015 $4.99N/A (N/A)0 .. 20,0000%00:00 (00:00)GNeguceanuGNeguceanu
661 Tap Heroes Jun 5, 2015 $2.99N/A (N/A)100,000 .. 200,0000%00:00 (00:00)VaragtPVaragtP
662 Waste Walkers Jun 1, 2015 $8.99N/A (N/A)20,000 .. 50,0000%00:00 (00:00)Corrosive Studios LLCCorrosive Studios LLC
663 Siralim Apr 24, 2015 $9.99N/A (N/A)50,000 .. 100,0000%00:00 (00:00)Thylacine StudiosThylacine Studios LLC
664 Telepath Tactics Apr 16, 2015 $14.99N/A (N/A)0 .. 20,0000%00:00 (00:00)Sinister DesignSinister Design
665 Age of Fear 2: The Chaos Lord GOLD Mar 27, 2016 $4.99N/A (N/A)20,000 .. 50,0000%00:00 (00:00)Leslaw SliwkoAge of Fear
666 FLAMBERGE Mar 25, 2015 $9.99N/A (N/A)0 .. 20,0000%00:00 (00:00)HYDEZEKEHammerware, s.r.o.
667 Social Justice Warriors May 12, 2014 $7.99N/A (N/A)100,000 .. 200,0000%00:00 (00:00)Nonadecimal CreativeNonadecimal Creative
668 Agarest: Generations of War 2 Feb 19, 2015 $19.99N/A (N/A)20,000 .. 50,0000%00:00 (00:00)Idea FactoryGhostlight LTD
669 Rime Berta Dec 16, 2014 $14.99N/A (N/A)20,000 .. 50,0000%00:00 (00:00)NEXT-SOFT+PLAYISM
670 Caravaneer 2 Dec 7, 2014 $5.99N/A (N/A)20,000 .. 50,0000%00:00 (00:00)Dmitry ZheltobriukhovDmitry Zheltobriukhov
671 Braveland Wizard Dec 4, 2014 $9.99N/A (N/A)50,000 .. 100,0000%00:00 (00:00)Tortuga TeamTortuga Team
672 Valkyria Chronicles Nov 11, 2014 $19.99N/A (N/A)500,000 .. 1,000,0000%00:00 (00:00)SEGASEGA
673 Sproggiwood Oct 24, 2014 $14.99N/A (N/A)100,000 .. 200,0000%00:00 (00:00)Freehold GamesFreehold Games
674 Fantasy Grounds Classic May 9, 2014 N/AN/A (N/A)100,000 .. 200,0000%00:00 (00:00)SmiteWorks USA, LLCSmiteWorks USA, LLC
675 Agarest: Generations of War Zero Apr 17, 2014 $19.99N/A (N/A)50,000 .. 100,0000%00:00 (00:00)Idea FactoryGhostlight LTD
676 Braveland Mar 17, 2014 $9.99N/A (N/A)5,000,000 .. 10,000,0000%00:00 (00:00)Tortuga TeamTortuga Team
677 Agarest: Generations of War Feb 4, 2014 $14.99N/A (N/A)100,000 .. 200,0000%00:00 (00:00)Idea FactoryGhostlight LTD
678 Gorky 17 Dec 31, 1999 $4.99N/A (N/A)200,000 .. 500,0000%00:00 (00:00)Topware Interactive ACE
679 Jagged Alliance 2 - Wildfire Mar 8, 2004 $4.49N/A (N/A)500,000 .. 1,000,0000%00:00 (00:00)I-deal GamesTopware Interactive
680 Defender's Quest: Valley of the Forgotten (DX edition) Oct 30, 2012 $14.99N/A (N/A)500,000 .. 1,000,0000%00:00 (00:00)Level Up Labs, LLCLevel Up Labs
681 Shining Force Jan 26, 2011 $0.99N/A (N/A)20,000 .. 50,0000%00:00 (00:00)SEGASEGA
682 Shining Force II Jan 26, 2011 $0.99N/A (N/A)20,000 .. 50,0000%00:00 (00:00)SEGASEGA
683 7,62 High Calibre Aug 24, 2007 $4.99N/A (N/A)50,000 .. 100,0000%00:00 (00:00)ApeironFulqrum Publishing
684 Magi Mar 21, 2007 $9.99N/A (N/A)0 .. 20,0000%00:00 (00:00)MoaCubeMoaCube
685 Castles & Catapults Jul 7, 2021 $7.99N/A (N/A)50,000 .. 100,0000%00:00 (00:00)Magic LanternAtari
686 Jagged Alliance 1: Gold Edition Jun 2, 1994 $9.99N/A (N/A)100,000 .. 200,0000%00:00 (00:00)Sir-Tech, Madlab SoftwareTHQ Nordic
687 Sabre Team Jan 1, 1992 $6.99N/A (N/A)1,000,000 .. 2,000,0000%00:00 (00:00)Krisalis SoftwareZiggurat
688 Spirit of Adventure Feb 7, 2022 $8.99N/A (N/A)0 .. 20,0000%00:00 (00:00)Attic Entertainment SoftwareUnique Games
Overview

Tactical RPG

Games with this tag: 688
Average userscore: N/A%
Average metascore: 73.31%
Average playtime: 04:25
Total copies owned: 95,491,000
Average price: $12.96
Help

Owners: Estimated number of people owning this game. The number might be way too small for new releases and sometimes way too big for games that had free weekend event recently. Read more on About page.

Playtime: Average hours played in total per person that have actually launched this game since March 2009. This time is calculated for the whole lifetime, not for the particular year.

Average score: Average users and metacritic score for all games with this score assigned.

Average playtime: Average lifetime playtime for all games where this data is available.

Games in this genre: Self-explaining - number of games with this tag. Only inculdes games with sales data available.

Total copies owned: Refers to total copies of games with this tag acquired by users for the lifetime. Includes copies sold, downloaded for free and given out.

This number might be too small for recently released games or too big for games that had a free weekend in the last couple of months.

Graphs

Login required.

Please register or log in to see this information.

Login required.

Please register or log in to see this information.